Observation data for Hobbs on 06/23/2019      Previous  Date  Next       Current Mesonet Observations  Soil Data  Daily Summary Page  Observations in Plain Language
KHO1 230500Z 24008KT 25/M08 A2991 RMK A01 T02521083  RH  010%=      5-min Rain = 0
KHO1 230501Z 24008KT 25/M08 A2991 RMK A01 T02511082  RH  010%=      5-min Rain = 0
KHO1 230502Z 24008KT 25/M08 A2991 RMK A01 T02491082  RH  010%=      5-min Rain = 0
KHO1 230503Z 24008KT 25/M08 A2991 RMK A01 T02481082  RH  011%=      5-min Rain = 0
KHO1 230504Z 24008KT 25/M08 A2991 RMK A01 T02471081  RH  011%=      5-min Rain = 0
KHO1 230505Z 24008KT 25/M08 A2991 RMK A01 T02461081  RH  011%=      5-min Rain = 0
KHO1 230506Z 24008KT 25/M08 A2991 RMK A01 T02451081  RH  011%=      5-min Rain = 0
KHO1 230507Z 24008KT 24/M08 A2991 RMK A01 T02441082  RH  011%=      5-min Rain = 0
KHO1 230508Z 24008KT 24/M08 A2991 RMK A01 T02431082  RH  011%=      5-min Rain = 0
KHO1 230509Z 24008KT 24/M08 A2991 RMK A01 T02421082  RH  011%=      5-min Rain = 0
KHO1 230510Z 24008KT 24/M08 A2991 RMK A01 T02421082  RH  011%=      5-min Rain = 0
KHO1 230511Z 24008KT 24/M08 A2991 RMK A01 T02411082  RH  011%=      5-min Rain = 0
KHO1 230512Z 24007KT 24/M08 A2991 RMK A01 T02401082  RH  011%=      5-min Rain = 0
KHO1 230513Z 24007KT 24/M08 A2991 RMK A01 T02391082  RH  011%=      5-min Rain = 0
KHO1 230514Z 24007KT 24/M08 A2991 RMK A01 T02381082  RH  011%=      5-min Rain = 0
KHO1 230515Z 24007KT 24/M08 A2991 RMK A01 T02371082  RH  011%=      5-min Rain = 0
KHO1 230516Z 24008KT 24/M08 A2991 RMK A01 T02361082  RH  011%=      5-min Rain = 0
KHO1 230517Z 24008KT 24/M08 A2991 RMK A01 T02361082  RH  011%=      5-min Rain = 0
KHO1 230518Z 24008KT 24/M08 A2991 RMK A01 T02361082  RH  011%=      5-min Rain = 0
KHO1 230519Z 25008KT 24/M08 A2991 RMK A01 T02361082  RH  011%=      5-min Rain = 0
KHO1 230520Z 25008KT 24/M08 A2991 RMK A01 T02351082  RH  011%=      5-min Rain = 0
KHO1 230521Z 25008KT 24/M08 A2991 RMK A01 T02351082  RH  011%=      5-min Rain = 0
KHO1 230522Z 25008KT 24/M08 A2991 RMK A01 T02351083  RH  011%=      5-min Rain = 0
KHO1 230523Z 25008KT 24/M08 A2991 RMK A01 T02351083  RH  011%=      5-min Rain = 0
KHO1 230524Z 25008KT 24/M08 A2991 RMK A01 T02361083  RH  011%=      5-min Rain = 0
KHO1 230525Z 25008KT 24/M08 A2991 RMK A01 T02361083  RH  011%=      5-min Rain = 0
KHO1 230526Z 25008KT 24/M08 A2991 RMK A01 T02361082  RH  011%=      5-min Rain = 0
KHO1 230527Z 24007KT 24/M08 A2991 RMK A01 T02361082  RH  011%=      5-min Rain = 0
KHO1 230528Z 24007KT 24/M08 A2991 RMK A01 T02351082  RH  011%=      5-min Rain = 0
KHO1 230529Z 25007KT 23/M08 A2991 RMK A01 T02341082  RH  011%=      5-min Rain = 0
KHO1 230530Z 25007KT 23/M08 A2991 RMK A01 T02331082  RH  012%=      5-min Rain = 0
KHO1 230531Z 26007KT 23/M08 A2991 RMK A01 T02321082  RH  012%=      5-min Rain = 0
KHO1 230532Z 25007KT 23/M08 A2991 RMK A01 T02331082  RH  012%=      5-min Rain = 0
KHO1 230533Z 25007KT 23/M08 A2991 RMK A01 T02331082  RH  012%=      5-min Rain = 0
KHO1 230534Z 24007KT 23/M08 A2991 RMK A01 T02341082  RH  011%=      5-min Rain = 0
KHO1 230535Z 24007KT 23/M08 A2991 RMK A01 T02341082  RH  011%=      5-min Rain = 0
KHO1 230536Z 24007KT 23/M08 A2991 RMK A01 T02341082  RH  011%=      5-min Rain = 0
KHO1 230537Z 24007KT 23/M08 A2991 RMK A01 T02341083  RH  011%=      5-min Rain = 0
KHO1 230538Z 23006KT 23/M08 A2992 RMK A01 T02341083  RH  011%=      5-min Rain = 0
KHO1 230539Z 22006KT 23/M08 A2992 RMK A01 T02341083  RH  011%=      5-min Rain = 0
KHO1 230540Z 19006KT 23/M08 A2992 RMK A01 T02321083  RH  012%=      5-min Rain = 0
KHO1 230541Z 16008KT 23/M08 A2992 RMK A01 T02271084  RH  012%=      5-min Rain = 0
KHO1 230542Z 17009KT 23/M08 A2992 RMK A01 T02281084  RH  012%=      5-min Rain = 0
KHO1 230543Z 18008KT 23/M09 A2992 RMK A01 T02311085  RH  011%=      5-min Rain = 0
KHO1 230544Z 17008KT 23/M09 A2992 RMK A01 T02341085  RH  011%=      5-min Rain = 0
KHO1 230545Z 17010KT 24/M09 A2992 RMK A01 T02371087  RH  011%=      5-min Rain = 0
KHO1 230546Z 17009KT 24/M08 A2992 RMK A01 T02401083  RH  011%=      5-min Rain = 0
KHO1 230547Z 17010KT 24/M07 A2992 RMK A01 T02421065  RH  013%=      5-min Rain = 0
KHO1 230548Z 17009KT 25/M05 A2992 RMK A01 T02471048  RH  014%=      5-min Rain = 0
KHO1 230549Z 18009KT 25/M03 A2993 RMK A01 T02491029  RH  016%=      5-min Rain = 0
KHO1 230550Z 18010KT 25/M02 A2993 RMK A01 T02501018  RH  017%=      5-min Rain = 0
KHO1 230551Z 18008KT 25/M01 A2993 RMK A01 T02491009  RH  018%=      5-min Rain = 0
KHO1 230552Z 18009KT 25/01 A2993 RMK A01 T02490014  RH  021%=      5-min Rain = 0
KHO1 230553Z 18009KT 25/02 A2993 RMK A01 T02490023  RH  023%=      5-min Rain = 0
KHO1 230554Z 18009KT 25/04 A2993 RMK A01 T02490038  RH  025%=      5-min Rain = 0
KHO1 230555Z 18008KT 25/05 A2993 RMK A01 T02490046  RH  027%=      5-min Rain = 0
KHO1 230556Z 18008KT 25/06 A2993 RMK A01 T02500062  RH  030%=      5-min Rain = 0
KHO1 230557Z 18009KT 25/07 A2993 RMK A01 T02500066  RH  031%=      5-min Rain = 0
KHO1 230558Z 17007KT 25/07 A2993 RMK A01 T02490068  RH  031%=      5-min Rain = 0
KHO1 230559Z 18009KT 25/08 A2992 RMK A01 T02480077  RH  034%=      5-min Rain = 0
KHO1 230600Z 17010KT 25/09 A2992 RMK A01 T02480090  RH  037%=      5-min Rain = 0
KHO1 230601Z 17010KT 25/10 A2992 RMK A01 T02480100  RH  039%=      5-min Rain = 0
KHO1 230602Z 17010KT 25/10 A2992 RMK A01 T02480101  RH  040%=      5-min Rain = 0
KHO1 230603Z 17009KT 25/10 A2992 RMK A01 T02470101  RH  040%=      5-min Rain = 0
KHO1 230604Z 17009KT 25/10 A2992 RMK A01 T02460104  RH  041%=      5-min Rain = 0
KHO1 230605Z 17010KT 25/11 A2992 RMK A01 T02460114  RH  044%=      5-min Rain = 0
KHO1 230606Z 17009KT 25/12 A2992 RMK A01 T02450118  RH  045%=      5-min Rain = 0
KHO1 230607Z 17009KT 24/12 A2992 RMK A01 T02440120  RH  046%=      5-min Rain = 0
KHO1 230608Z 17009KT 24/13 A2992 RMK A01 T02440128  RH  048%=      5-min Rain = 0
KHO1 230609Z 17008KT 24/13 A2992 RMK A01 T02440131  RH  049%=      5-min Rain = 0
KHO1 230610Z 17008KT 24/13 A2993 RMK A01 T02430132  RH  050%=      5-min Rain = 0
KHO1 230611Z 17010KT 24/14 A2993 RMK A01 T02420138  RH  052%=      5-min Rain = 0
KHO1 230612Z 17010KT 24/14 A2992 RMK A01 T02430144  RH  054%=      5-min Rain = 0
KHO1 230613Z 17011KT 24/15 A2992 RMK A01 T02430149  RH  056%=      5-min Rain = 0
KHO1 230614Z 17010KT 24/15 A2992 RMK A01 T02430152  RH  057%=      5-min Rain = 0
KHO1 230615Z 17011KT 24/16 A2992 RMK A01 T02430155  RH  058%=      5-min Rain = 0
KHO1 230616Z 17011KT 24/16 A2992 RMK A01 T02430158  RH  059%=      5-min Rain = 0
KHO1 230617Z 17012KT 24/16 A2992 RMK A01 T02430162  RH  060%=      5-min Rain = 0
KHO1 230618Z 17011KT 24/16 A2992 RMK A01 T02430164  RH  061%=      5-min Rain = 0
KHO1 230619Z 18010KT 24/16 A2992 RMK A01 T02430164  RH  062%=      5-min Rain = 0
KHO1 230620Z 17010KT 24/17 A2992 RMK A01 T02420166  RH  062%=      5-min Rain = 0
KHO1 230621Z 17011KT 24/17 A2992 RMK A01 T02420169  RH  064%=      5-min Rain = 0
KHO1 230622Z 17011KT 24/17 A2992 RMK A01 T02430171  RH  064%=      5-min Rain = 0
KHO1 230623Z 17010KT 24/17 A2992 RMK A01 T02430172  RH  065%=      5-min Rain = 0
KHO1 230624Z 17011KT 24/17 A2992 RMK A01 T02430173  RH  065%=      5-min Rain = 0
KHO1 230625Z 17010KT 24/17 A2992 RMK A01 T02420173  RH  065%=      5-min Rain = 0
KHO1 230626Z 18010KT 24/17 A2992 RMK A01 T02420173  RH  065%=      5-min Rain = 0
KHO1 230627Z 18011KT 24/17 A2992 RMK A01 T02410174  RH  066%=      5-min Rain = 0
KHO1 230628Z 17010KT 24/18 A2992 RMK A01 T02410175  RH  066%=      5-min Rain = 0
KHO1 230629Z 17010KT 24/18 A2992 RMK A01 T02410176  RH  067%=      5-min Rain = 0
KHO1 230630Z 18010KT 24/18 A2992 RMK A01 T02410176  RH  067%=      5-min Rain = 0
KHO1 230631Z 17010KT 24/18 A2992 RMK A01 T02410177  RH  067%=      5-min Rain = 0
KHO1 230632Z 17010KT 24/18 A2992 RMK A01 T02410177  RH  068%=      5-min Rain = 0
KHO1 230633Z 17010KT 24/18 A2992 RMK A01 T02410178  RH  068%=      5-min Rain = 0
KHO1 230634Z 17011KT 24/18 A2992 RMK A01 T02410178  RH  068%=      5-min Rain = 0
KHO1 230635Z 17013KT 24/18 A2992 RMK A01 T02410180  RH  069%=      5-min Rain = 0
KHO1 230636Z 17011KT 24/18 A2992 RMK A01 T02410180  RH  069%=      5-min Rain = 0
KHO1 230637Z 17010KT 24/18 A2992 RMK A01 T02410180  RH  069%=      5-min Rain = 0
KHO1 230638Z 17011KT 24/18 A2992 RMK A01 T02410181  RH  069%=      5-min Rain = 0
KHO1 230639Z 17010KT 24/18 A2992 RMK A01 T02410181  RH  069%=      5-min Rain = 0
KHO1 230640Z 17009KT 24/18 A2992 RMK A01 T02410181  RH  069%=      5-min Rain = 0
KHO1 230641Z 17011KT 24/18 A2992 RMK A01 T02400181  RH  069%=      5-min Rain = 0
KHO1 230642Z 17011KT 24/18 A2992 RMK A01 T02400181  RH  070%=      5-min Rain = 0
KHO1 230643Z 17010KT 24/18 A2992 RMK A01 T02400181  RH  070%=      5-min Rain = 0
KHO1 230644Z 17011KT 24/18 A2992 RMK A01 T02400182  RH  070%=      5-min Rain = 0
KHO1 230645Z 17011KT 24/18 A2992 RMK A01 T02400182  RH  070%=      5-min Rain = 0
KHO1 230646Z 17008KT 24/18 A2992 RMK A01 T02390181  RH  070%=      5-min Rain = 0
KHO1 230647Z 17010KT 24/18 A2992 RMK A01 T02390181  RH  070%=      5-min Rain = 0
KHO1 230648Z 17010KT 24/18 A2992 RMK A01 T02390181  RH  070%=      5-min Rain = 0
KHO1 230649Z 17010KT 24/18 A2992 RMK A01 T02380182  RH  071%=      5-min Rain = 0
KHO1 230650Z 17012KT 24/18 A2992 RMK A01 T02380183  RH  071%=      5-min Rain = 0
KHO1 230651Z 18011G16KT 24/18 A2992 RMK A01 T02390182  RH  071%=      5-min Rain = 0
KHO1 230652Z 17011KT 24/18 A2992 RMK A01 T02380183  RH  071%=      5-min Rain = 0
KHO1 230653Z 18012KT 24/18 A2992 RMK A01 T02390183  RH  071%=      5-min Rain = 0
KHO1 230654Z 18013KT 24/18 A2992 RMK A01 T02390184  RH  071%=      5-min Rain = 0
KHO1 230655Z 18011KT 24/18 A2992 RMK A01 T02390183  RH  071%=      5-min Rain = 0
KHO1 230656Z 18011KT 24/18 A2992 RMK A01 T02380183  RH  071%=      5-min Rain = 0
KHO1 230657Z 18012KT 24/18 A2992 RMK A01 T02380184  RH  072%=      5-min Rain = 0
KHO1 230658Z 18011KT 24/18 A2992 RMK A01 T02380184  RH  071%=      5-min Rain = 0
KHO1 230659Z 18015KT 24/18 A2992 RMK A01 T02380184  RH  072%=      5-min Rain = 0
KHO1 230700Z 18014KT 24/19 A2992 RMK A01 T02380185  RH  072%=      5-min Rain = 0
KHO1 230701Z 18012KT 24/18 A2992 RMK A01 T02380184  RH  072%=      5-min Rain = 0
KHO1 230702Z 18012KT 24/18 A2992 RMK A01 T02380184  RH  072%=      5-min Rain = 0
KHO1 230703Z 18015KT 24/19 A2992 RMK A01 T02380185  RH  072%=      5-min Rain = 0
KHO1 230704Z 18014G19KT 24/19 A2992 RMK A01 T02380185  RH  072%=      5-min Rain = 0
KHO1 230705Z 18014KT 24/19 A2991 RMK A01 T02380185  RH  072%=      5-min Rain = 0
KHO1 230706Z 18012KT 24/18 A2992 RMK A01 T02380184  RH  072%=      5-min Rain = 0
KHO1 230707Z 18014KT 24/19 A2992 RMK A01 T02380185  RH  072%=      5-min Rain = 0
KHO1 230708Z 18013KT 24/19 A2992 RMK A01 T02380185  RH  072%=      5-min Rain = 0
KHO1 230709Z 18012KT 24/19 A2992 RMK A01 T02370185  RH  072%=      5-min Rain = 0
KHO1 230710Z 18013KT 24/19 A2992 RMK A01 T02370185  RH  072%=      5-min Rain = 0
KHO1 230711Z 18012KT 24/19 A2992 RMK A01 T02370185  RH  073%=      5-min Rain = 0
KHO1 230712Z 18013KT 24/19 A2992 RMK A01 T02370185  RH  073%=      5-min Rain = 0
KHO1 230713Z 18013KT 24/19 A2991 RMK A01 T02360185  RH  073%=      5-min Rain = 0
KHO1 230714Z 18014KT 24/19 A2992 RMK A01 T02360185  RH  073%=      5-min Rain = 0
KHO1 230715Z 18014KT 24/19 A2992 RMK A01 T02360185  RH  073%=      5-min Rain = 0
KHO1 230716Z 18014KT 24/19 A2992 RMK A01 T02360185  RH  073%=      5-min Rain = 0
KHO1 230717Z 18012KT 24/19 A2992 RMK A01 T02360185  RH  073%=      5-min Rain = 0
KHO1 230718Z 18011KT 24/18 A2991 RMK A01 T02350184  RH  073%=      5-min Rain = 0
KHO1 230719Z 18012KT 24/18 A2992 RMK A01 T02350184  RH  073%=      5-min Rain = 0
KHO1 230720Z 18014KT 24/19 A2992 RMK A01 T02350185  RH  073%=      5-min Rain = 0
KHO1 230721Z 18013KT 24/19 A2992 RMK A01 T02350185  RH  074%=      5-min Rain = 0
KHO1 230722Z 18012KT 24/19 A2991 RMK A01 T02350185  RH  073%=      5-min Rain = 0
KHO1 230723Z 18012KT 23/19 A2992 RMK A01 T02340185  RH  074%=      5-min Rain = 0
KHO1 230724Z 18011KT 23/19 A2992 RMK A01 T02340185  RH  074%=      5-min Rain = 0
KHO1 230725Z 18012KT 23/18 A2992 RMK A01 T02340184  RH  074%=      5-min Rain = 0
KHO1 230726Z 18014KT 23/19 A2992 RMK A01 T02330185  RH  074%=      5-min Rain = 0
KHO1 230727Z 18012G18KT 23/19 A2992 RMK A01 T02340185  RH  074%=      5-min Rain = 0
KHO1 230728Z 18011KT 23/19 A2992 RMK A01 T02340185  RH  074%=      5-min Rain = 0
KHO1 230729Z 18011KT 23/19 A2992 RMK A01 T02330185  RH  074%=      5-min Rain = 0
KHO1 230730Z 18013KT 23/19 A2992 RMK A01 T02330185  RH  074%=      5-min Rain = 0
KHO1 230731Z 18009KT 23/18 A2992 RMK A01 T02330184  RH  074%=      5-min Rain = 0
KHO1 230732Z 18011KT 23/19 A2991 RMK A01 T02330185  RH  074%=      5-min Rain = 0
KHO1 230733Z 18012KT 23/19 A2991 RMK A01 T02320185  RH  075%=      5-min Rain = 0
KHO1 230734Z 18012KT 23/19 A2992 RMK A01 T02330185  RH  075%=      5-min Rain = 0
KHO1 230735Z 18012KT 23/19 A2991 RMK A01 T02330185  RH  075%=      5-min Rain = 0
KHO1 230736Z 18015KT 23/19 A2991 RMK A01 T02330186  RH  075%=      5-min Rain = 0
KHO1 230737Z 19013KT 23/19 A2991 RMK A01 T02330186  RH  075%=      5-min Rain = 0
KHO1 230738Z 18013KT 23/19 A2991 RMK A01 T02330185  RH  075%=      5-min Rain = 0
KHO1 230739Z 18013G18KT 23/19 A2992 RMK A01 T02330186  RH  075%=      5-min Rain = 0
KHO1 230740Z 18012KT 23/19 A2992 RMK A01 T02320185  RH  075%=      5-min Rain = 0
KHO1 230741Z 18013KT 23/19 A2992 RMK A01 T02320185  RH  075%=      5-min Rain = 0
KHO1 230742Z 18013KT 23/19 A2992 RMK A01 T02320186  RH  075%=      5-min Rain = 0
KHO1 230743Z 19011KT 23/19 A2992 RMK A01 T02320185  RH  075%=      5-min Rain = 0
KHO1 230744Z 18012KT 23/19 A2992 RMK A01 T02310185  RH  075%=      5-min Rain = 0
KHO1 230745Z 18012KT 23/19 A2992 RMK A01 T02310186  RH  075%=      5-min Rain = 0
KHO1 230746Z 18013KT 23/19 A2992 RMK A01 T02310186  RH  076%=      5-min Rain = 0
KHO1 230747Z 18012KT 23/19 A2992 RMK A01 T02310185  RH  075%=      5-min Rain = 0
KHO1 230748Z 18013KT 23/19 A2992 RMK A01 T02310186  RH  076%=      5-min Rain = 0
KHO1 230749Z 18012KT 23/19 A2992 RMK A01 T02310186  RH  076%=      5-min Rain = 0
KHO1 230750Z 19012KT 23/19 A2992 RMK A01 T02310186  RH  076%=      5-min Rain = 0
KHO1 230751Z 18013KT 23/19 A2992 RMK A01 T02310186  RH  076%=      5-min Rain = 0
KHO1 230752Z 18012KT 23/19 A2992 RMK A01 T02310186  RH  076%=      5-min Rain = 0
KHO1 230753Z 19013KT 23/19 A2992 RMK A01 T02310186  RH  076%=      5-min Rain = 0
KHO1 230754Z 18012KT 23/19 A2992 RMK A01 T02300186  RH  076%=      5-min Rain = 0
KHO1 230755Z 18012KT 23/19 A2992 RMK A01 T02300186  RH  076%=      5-min Rain = 0
KHO1 230756Z 19012KT 23/19 A2992 RMK A01 T02300186  RH  076%=      5-min Rain = 0
KHO1 230757Z 19011KT 23/19 A2992 RMK A01 T02300185  RH  076%=      5-min Rain = 0
KHO1 230758Z 18010KT 23/19 A2992 RMK A01 T02290185  RH  076%=      5-min Rain = 0
KHO1 230759Z 18010KT 23/19 A2992 RMK A01 T02280185  RH  076%=      5-min Rain = 0
KHO1 230800Z 19010KT 23/19 A2992 RMK A01 T02280185  RH  077%=      5-min Rain = 0
KHO1 230801Z 19010KT 23/19 A2992 RMK A01 T02280185  RH  077%=      5-min Rain = 0
KHO1 230802Z 18010KT 23/19 A2992 RMK A01 T02280185  RH  077%=      5-min Rain = 0
KHO1 230803Z 18009KT 23/19 A2992 RMK A01 T02270185  RH  077%=      5-min Rain = 0
KHO1 230804Z 19011KT 23/19 A2992 RMK A01 T02270185  RH  077%=      5-min Rain = 0
KHO1 230805Z 19009KT 23/19 A2992 RMK A01 T02270185  RH  077%=      5-min Rain = 0
KHO1 230806Z 19009KT 23/19 A2992 RMK A01 T02270185  RH  077%=      5-min Rain = 0
KHO1 230807Z 18009KT 23/19 A2992 RMK A01 T02270185  RH  077%=      5-min Rain = 0
KHO1 230808Z 19009KT 23/19 A2992 RMK A01 T02260185  RH  077%=      5-min Rain = 0
KHO1 230809Z 19009KT 23/19 A2992 RMK A01 T02260185  RH  078%=      5-min Rain = 0
KHO1 230810Z 19011KT 23/19 A2992 RMK A01 T02260186  RH  078%=      5-min Rain = 0
KHO1 230811Z 19009KT 23/19 A2992 RMK A01 T02260185  RH  078%=      5-min Rain = 0
KHO1 230812Z 19011KT 23/19 A2992 RMK A01 T02260185  RH  078%=      5-min Rain = 0
KHO1 230813Z 19012KT 23/19 A2992 RMK A01 T02260185  RH  078%=      5-min Rain = 0
KHO1 230814Z 19011KT 23/19 A2992 RMK A01 T02250186  RH  078%=      5-min Rain = 0
KHO1 230815Z 19010KT 23/19 A2992 RMK A01 T02250185  RH  078%=      5-min Rain = 0
KHO1 230816Z 19012KT 23/19 A2992 RMK A01 T02250186  RH  078%=      5-min Rain = 0
KHO1 230817Z 19012KT 23/19 A2992 RMK A01 T02250186  RH  078%=      5-min Rain = 0
KHO1 230818Z 19011KT 23/19 A2992 RMK A01 T02250186  RH  078%=      5-min Rain = 0
KHO1 230819Z 19012KT 23/19 A2992 RMK A01 T02250186  RH  078%=      5-min Rain = 0
KHO1 230820Z 19011KT 22/19 A2992 RMK A01 T02240185  RH  079%=      5-min Rain = 0
KHO1 230821Z 19012KT 22/19 A2992 RMK A01 T02240186  RH  079%=      5-min Rain = 0
KHO1 230822Z 19011KT 22/19 A2992 RMK A01 T02240186  RH  079%=      5-min Rain = 0
KHO1 230823Z 19012KT 22/19 A2992 RMK A01 T02240186  RH  079%=      5-min Rain = 0
KHO1 230824Z 19011KT 22/19 A2992 RMK A01 T02240186  RH  079%=      5-min Rain = 0
KHO1 230825Z 19012KT 22/19 A2992 RMK A01 T02230186  RH  079%=      5-min Rain = 0
KHO1 230826Z 19012KT 22/19 A2992 RMK A01 T02230186  RH  079%=      5-min Rain = 0
KHO1 230827Z 19011KT 22/19 A2992 RMK A01 T02230186  RH  079%=      5-min Rain = 0
KHO1 230828Z 19010KT 22/19 A2992 RMK A01 T02230185  RH  079%=      5-min Rain = 0
KHO1 230829Z 19009KT 22/19 A2992 RMK A01 T02220185  RH  079%=      5-min Rain = 0
KHO1 230830Z 19009KT 22/19 A2992 RMK A01 T02220185  RH  080%=      5-min Rain = 0
KHO1 230831Z 19010KT 22/19 A2992 RMK A01 T02220186  RH  080%=      5-min Rain = 0
KHO1 230832Z 19010KT 22/19 A2992 RMK A01 T02220185  RH  080%=      5-min Rain = 0
KHO1 230833Z 19012KT 22/19 A2992 RMK A01 T02210186  RH  080%=      5-min Rain = 0
KHO1 230834Z 19012KT 22/19 A2992 RMK A01 T02220186  RH  080%=      5-min Rain = 0
KHO1 230835Z 19012KT 22/19 A2992 RMK A01 T02220186  RH  080%=      5-min Rain = 0
KHO1 230836Z 19013KT 22/19 A2992 RMK A01 T02220187  RH  080%=      5-min Rain = 0
KHO1 230837Z 20012KT 22/19 A2992 RMK A01 T02220186  RH  080%=      5-min Rain = 0
KHO1 230838Z 19010KT 22/19 A2992 RMK A01 T02220186  RH  080%=      5-min Rain = 0
KHO1 230839Z 19010KT 22/19 A2992 RMK A01 T02210186  RH  080%=      5-min Rain = 0
KHO1 230840Z 19012KT 22/19 A2992 RMK A01 T02210186  RH  080%=      5-min Rain = 0
KHO1 230841Z 19010KT 22/19 A2992 RMK A01 T02210186  RH  081%=      5-min Rain = 0
KHO1 230842Z 19010KT 22/19 A2992 RMK A01 T02210186  RH  081%=      5-min Rain = 0
KHO1 230843Z 19011KT 22/19 A2992 RMK A01 T02210186  RH  081%=      5-min Rain = 0
KHO1 230844Z 19011KT 22/19 A2992 RMK A01 T02210186  RH  081%=      5-min Rain = 0
KHO1 230845Z 19012KT 22/19 A2992 RMK A01 T02210186  RH  081%=      5-min Rain = 0
KHO1 230846Z 20011KT 22/19 A2992 RMK A01 T02210186  RH  081%=      5-min Rain = 0
KHO1 230847Z 19010KT 22/19 A2992 RMK A01 T02200186  RH  081%=      5-min Rain = 0
KHO1 230848Z 19011KT 22/19 A2992 RMK A01 T02200186  RH  081%=      5-min Rain = 0
KHO1 230849Z 19010KT 22/19 A2992 RMK A01 T02200186  RH  081%=      5-min Rain = 0
KHO1 230850Z 19010KT 22/19 A2992 RMK A01 T02190185  RH  081%=      5-min Rain = 0
KHO1 230851Z 19011KT 22/19 A2992 RMK A01 T02190186  RH  082%=      5-min Rain = 0
KHO1 230852Z 19012KT 22/19 A2992 RMK A01 T02190186  RH  082%=      5-min Rain = 0
KHO1 230853Z 19010KT 22/19 A2992 RMK A01 T02190186  RH  082%=      5-min Rain = 0
KHO1 230854Z 19010KT 22/19 A2992 RMK A01 T02180186  RH  082%=      5-min Rain = 0
KHO1 230855Z 19010KT 22/19 A2992 RMK A01 T02180186  RH  082%=      5-min Rain = 0
KHO1 230856Z 19010KT 22/19 A2992 RMK A01 T02180186  RH  082%=      5-min Rain = 0
KHO1 230857Z 19010KT 22/19 A2992 RMK A01 T02170185  RH  082%=      5-min Rain = 0
KHO1 230858Z 19010KT 22/19 A2992 RMK A01 T02170186  RH  082%=      5-min Rain = 0
KHO1 230859Z 19010KT 22/19 A2992 RMK A01 T02170186  RH  082%=      5-min Rain = 0
KHO1 230900Z 19011KT 22/19 A2992 RMK A01 T02170186  RH  083%=      5-min Rain = 0
KHO1 230901Z 19010KT 22/19 A2992 RMK A01 T02170186  RH  083%=      5-min Rain = 0
KHO1 230902Z 19011KT 22/19 A2991 RMK A01 T02170186  RH  083%=      5-min Rain = 0
KHO1 230903Z 19008KT 22/19 A2991 RMK A01 T02160185  RH  082%=      5-min Rain = 0
KHO1 230904Z 19012KT 22/19 A2991 RMK A01 T02160186  RH  083%=      5-min Rain = 0
KHO1 230905Z 19010KT 22/19 A2992 RMK A01 T02160186  RH  083%=      5-min Rain = 0
KHO1 230906Z 19011KT 22/19 A2991 RMK A01 T02160187  RH  083%=      5-min Rain = 0
KHO1 230907Z 19011KT 22/19 A2992 RMK A01 T02160187  RH  083%=      5-min Rain = 0
KHO1 230908Z 19011KT 22/19 A2992 RMK A01 T02160186  RH  083%=      5-min Rain = 0
KHO1 230909Z 19012KT 22/19 A2992 RMK A01 T02160187  RH  083%=      5-min Rain = 0
KHO1 230910Z 19011KT 22/19 A2991 RMK A01 T02160187  RH  083%=      5-min Rain = 0
KHO1 230911Z 19010KT 22/19 A2992 RMK A01 T02160186  RH  083%=      5-min Rain = 0
KHO1 230912Z 19010KT 22/19 A2992 RMK A01 T02150186  RH  084%=      5-min Rain = 0
KHO1 230913Z 19011KT 22/19 A2992 RMK A01 T02150187  RH  084%=      5-min Rain = 0
KHO1 230914Z 19009KT 22/19 A2992 RMK A01 T02150186  RH  084%=      5-min Rain = 0
KHO1 230915Z 19009KT 21/19 A2992 RMK A01 T02140186  RH  084%=      5-min Rain = 0
KHO1 230916Z 19012KT 22/19 A2992 RMK A01 T02150187  RH  084%=      5-min Rain = 0
KHO1 230917Z 19011KT 22/19 A2992 RMK A01 T02150187  RH  084%=      5-min Rain = 0
KHO1 230918Z 19011KT 22/19 A2992 RMK A01 T02150187  RH  084%=      5-min Rain = 0
KHO1 230919Z 19010KT 21/19 A2992 RMK A01 T02140187  RH  084%=      5-min Rain = 0
KHO1 230920Z 19012KT 21/19 A2992 RMK A01 T02140187  RH  085%=      5-min Rain = 0
KHO1 230921Z 19010KT 21/19 A2992 RMK A01 T02140187  RH  084%=      5-min Rain = 0
KHO1 230922Z 19010KT 21/19 A2992 RMK A01 T02140187  RH  085%=      5-min Rain = 0
KHO1 230923Z 19010KT 21/19 A2992 RMK A01 T02140187  RH  085%=      5-min Rain = 0
KHO1 230924Z 19010KT 21/19 A2992 RMK A01 T02140187  RH  085%=      5-min Rain = 0
KHO1 230925Z 19011KT 21/19 A2991 RMK A01 T02140188  RH  085%=      5-min Rain = 0
KHO1 230926Z 19010KT 21/19 A2991 RMK A01 T02140187  RH  085%=      5-min Rain = 0
KHO1 230927Z 19009KT 21/19 A2991 RMK A01 T02130187  RH  085%=      5-min Rain = 0
KHO1 230928Z 19010KT 21/19 A2991 RMK A01 T02130187  RH  085%=      5-min Rain = 0
KHO1 230929Z 19009KT 21/19 A2991 RMK A01 T02130188  RH  085%=      5-min Rain = 0
KHO1 230930Z 19008KT 21/19 A2991 RMK A01 T02130187  RH  085%=      5-min Rain = 0
KHO1 230931Z 20008KT 21/19 A2992 RMK A01 T02120187  RH  086%=      5-min Rain = 0
KHO1 230932Z 20009KT 21/19 A2992 RMK A01 T02120188  RH  086%=      5-min Rain = 0
KHO1 230933Z 20008KT 21/19 A2992 RMK A01 T02120189  RH  087%=      5-min Rain = 0
KHO1 230934Z 20006KT 21/19 A2992 RMK A01 T02120190  RH  087%=      5-min Rain = 0
KHO1 230935Z 20008KT 21/19 A2992 RMK A01 T02120190  RH  087%=      5-min Rain = 0
KHO1 230936Z 19007KT 21/19 A2992 RMK A01 T02120191  RH  088%=      5-min Rain = 0
KHO1 230937Z 20009KT 21/19 A2992 RMK A01 T02120193  RH  089%=      5-min Rain = 0
KHO1 230938Z 19010KT 21/20 A2992 RMK A01 T02120195  RH  090%=      5-min Rain = 0
KHO1 230939Z 21010KT 21/20 A2992 RMK A01 T02120196  RH  090%=      5-min Rain = 0
KHO1 230940Z 22010KT 21/20 A2993 RMK A01 T02120196  RH  090%=      5-min Rain = 0
KHO1 230941Z 21007KT 21/20 A2992 RMK A01 T02130197  RH  091%=      5-min Rain = 0
KHO1 230942Z 22006KT 21/20 A2992 RMK A01 T02130197  RH  090%=      5-min Rain = 0
KHO1 230943Z 23006KT 21/20 A2993 RMK A01 T02120196  RH  090%=      5-min Rain = 0
KHO1 230944Z 20007KT 21/20 A2993 RMK A01 T02120195  RH  090%=      5-min Rain = 0
KHO1 230945Z 19008KT 21/20 A2992 RMK A01 T02110195  RH  090%=      5-min Rain = 0
KHO1 230946Z 19011KT 21/20 A2993 RMK A01 T02120196  RH  091%=      5-min Rain = 0
KHO1 230947Z 20012KT 21/20 A2993 RMK A01 T02120197  RH  091%=      5-min Rain = 0
KHO1 230948Z 20009KT 21/20 A2993 RMK A01 T02130198  RH  091%=      5-min Rain = 0
KHO1 230949Z 20008KT 21/20 A2993 RMK A01 T02130197  RH  091%=      5-min Rain = 0
KHO1 230950Z 20007KT 21/20 A2993 RMK A01 T02120197  RH  091%=      5-min Rain = 0
KHO1 230951Z 20009KT 21/20 A2993 RMK A01 T02120196  RH  091%=      5-min Rain = 0
KHO1 230952Z 23008KT 21/20 A2993 RMK A01 T02120196  RH  091%=      5-min Rain = 0
KHO1 230953Z 22008KT 21/20 A2993 RMK A01 T02120197  RH  091%=      5-min Rain = 0
KHO1 230954Z 22009KT 21/20 A2993 RMK A01 T02130198  RH  091%=      5-min Rain = 0
KHO1 230955Z 22011KT 21/20 A2994 RMK A01 T02140198  RH  091%=      5-min Rain = 0
KHO1 230956Z 23009KT 21/20 A2994 RMK A01 T02140198  RH  091%=      5-min Rain = 0
KHO1 230957Z 22009KT 21/20 A2994 RMK A01 T02140198  RH  090%=      5-min Rain = 0
KHO1 230958Z 22007KT 21/20 A2994 RMK A01 T02140197  RH  090%=      5-min Rain = 0
KHO1 230959Z 24008KT 21/20 A2994 RMK A01 T02140197  RH  090%=      5-min Rain = 0
KHO1 231000Z 27008KT 21/20 A2995 RMK A01 T02130196  RH  090%=      5-min Rain = 0
KHO1 231001Z 28008KT 21/20 A2995 RMK A01 T02130196  RH  090%=      5-min Rain = 0
KHO1 231002Z 27006KT 21/20 A2995 RMK A01 T02120196  RH  090%=      5-min Rain = 0
KHO1 231003Z 28006KT 21/20 A2995 RMK A01 T02120196  RH  091%=      5-min Rain = 0
KHO1 231004Z 28006KT 21/20 A2995 RMK A01 T02120196  RH  091%=      5-min Rain = 0
KHO1 231005Z 27005KT 21/20 A2995 RMK A01 T02120196  RH  091%=      5-min Rain = 0
KHO1 231006Z 27005KT 21/20 A2995 RMK A01 T02120197  RH  091%=      5-min Rain = 0
KHO1 231007Z 26005KT 21/20 A2995 RMK A01 T02110196  RH  091%=      5-min Rain = 0
KHO1 231008Z 26005KT 21/20 A2995 RMK A01 T02110196  RH  091%=      5-min Rain = 0
KHO1 231009Z 26008KT 21/20 A2995 RMK A01 T02110196  RH  091%=      5-min Rain = 0
KHO1 231010Z 26007KT 21/20 A2995 RMK A01 T02110196  RH  091%=      5-min Rain = 0
KHO1 231011Z 26007KT 21/20 A2995 RMK A01 T02110196  RH  091%=      5-min Rain = 0
KHO1 231012Z 26007KT 21/20 A2995 RMK A01 T02100196  RH  091%=      5-min Rain = 0
KHO1 231013Z 26007KT 21/20 A2995 RMK A01 T02100196  RH  091%=      5-min Rain = 0
KHO1 231014Z 26007KT 21/20 A2995 RMK A01 T02100196  RH  091%=      5-min Rain = 0
KHO1 231015Z 26007KT 21/20 A2995 RMK A01 T02100196  RH  092%=      5-min Rain = 0
KHO1 231016Z 25006KT 21/20 A2995 RMK A01 T02100196  RH  091%=      5-min Rain = 0
KHO1 231017Z 25006KT 21/20 A2995 RMK A01 T02100196  RH  091%=      5-min Rain = 0
KHO1 231018Z 26006KT 21/20 A2995 RMK A01 T02100196  RH  091%=      5-min Rain = 0
KHO1 231019Z 27006KT 21/20 A2995 RMK A01 T02100196  RH  092%=      5-min Rain = 0
KHO1 231020Z 27005KT 21/20 A2995 RMK A01 T02100196  RH  092%=      5-min Rain = 0
KHO1 231021Z 28004KT 21/20 A2995 RMK A01 T02100195  RH  091%=      5-min Rain = 0
KHO1 231022Z 27005KT 21/20 A2995 RMK A01 T02090195  RH  091%=      5-min Rain = 0
KHO1 231023Z 26005KT 21/20 A2995 RMK A01 T02090195  RH  092%=      5-min Rain = 0
KHO1 231024Z 25005KT 21/20 A2995 RMK A01 T02090195  RH  092%=      5-min Rain = 0
KHO1 231025Z 26006KT 21/20 A2995 RMK A01 T02080195  RH  092%=      5-min Rain = 0
KHO1 231026Z 25006KT 21/19 A2996 RMK A01 T02080194  RH  092%=      5-min Rain = 0
KHO1 231027Z 26006KT 21/19 A2996 RMK A01 T02080194  RH  092%=      5-min Rain = 0
KHO1 231028Z 26006KT 21/19 A2996 RMK A01 T02070194  RH  092%=      5-min Rain = 0
KHO1 231029Z 27006KT 21/19 A2996 RMK A01 T02070194  RH  092%=      5-min Rain = 0
KHO1 231030Z 27006KT 21/19 A2996 RMK A01 T02070194  RH  092%=      5-min Rain = 0
KHO1 231031Z 26006KT 21/19 A2996 RMK A01 T02070194  RH  092%=      5-min Rain = 0
KHO1 231032Z 25005KT 21/19 A2996 RMK A01 T02070193  RH  092%=      5-min Rain = 0
KHO1 231033Z 24005KT 21/19 A2996 RMK A01 T02060193  RH  092%=      5-min Rain = 0
KHO1 231034Z 24004KT 21/19 A2996 RMK A01 T02060192  RH  092%=      5-min Rain = 0
KHO1 231035Z 23004KT 21/19 A2996 RMK A01 T02050192  RH  092%=      5-min Rain = 0
KHO1 231036Z 22005KT 21/19 A2996 RMK A01 T02050191  RH  092%=      5-min Rain = 0
KHO1 231037Z 22004KT 20/19 A2996 RMK A01 T02040191  RH  092%=      5-min Rain = 0
KHO1 231038Z 22005KT 20/19 A2996 RMK A01 T02030190  RH  092%=      5-min Rain = 0
KHO1 231039Z 23005KT 20/19 A2996 RMK A01 T02020190  RH  092%=      5-min Rain = 0
KHO1 231040Z 23006KT 20/19 A2996 RMK A01 T02030192  RH  093%=      5-min Rain = 0
KHO1 231041Z 22006KT 20/19 A2996 RMK A01 T02040194  RH  094%=      5-min Rain = 0
KHO1 231042Z 22006KT 21/19 A2996 RMK A01 T02050194  RH  094%=      5-min Rain = 0
KHO1 231043Z 22006KT 21/19 A2996 RMK A01 T02050194  RH  093%=      5-min Rain = 0
KHO1 231044Z 22005KT 21/19 A2996 RMK A01 T02050194  RH  093%=      5-min Rain = 0
KHO1 231045Z 22005KT 21/19 A2996 RMK A01 T02050193  RH  093%=      5-min Rain = 0
KHO1 231046Z 21005KT 21/19 A2996 RMK A01 T02050192  RH  092%=      5-min Rain = 0
KHO1 231047Z 21004KT 21/19 A2996 RMK A01 T02050192  RH  092%=      5-min Rain = 0
KHO1 231048Z 21004KT 21/19 A2996 RMK A01 T02050192  RH  092%=      5-min Rain = 0
KHO1 231049Z 21004KT 20/19 A2996 RMK A01 T02040192  RH  092%=      5-min Rain = 0
KHO1 231050Z 21004KT 20/19 A2996 RMK A01 T02040191  RH  092%=      5-min Rain = 0
KHO1 231051Z 21005KT 20/19 A2996 RMK A01 T02030191  RH  092%=      5-min Rain = 0
KHO1 231052Z 22005KT 20/19 A2996 RMK A01 T02030191  RH  093%=      5-min Rain = 0
KHO1 231053Z 22005KT 20/19 A2995 RMK A01 T02020190  RH  093%=      5-min Rain = 0
KHO1 231054Z 22005KT 20/19 A2995 RMK A01 T02020190  RH  093%=      5-min Rain = 0
KHO1 231055Z 22005KT 20/19 A2996 RMK A01 T02010190  RH  093%=      5-min Rain = 0
KHO1 231056Z 21005KT 20/19 A2996 RMK A01 T02010190  RH  093%=      5-min Rain = 0
KHO1 231057Z 21005KT 20/19 A2996 RMK A01 T02010190  RH  093%=      5-min Rain = 0
KHO1 231058Z 21005KT 20/19 A2996 RMK A01 T02010190  RH  093%=      5-min Rain = 0
KHO1 231059Z 21004KT 20/19 A2996 RMK A01 T02010190  RH  094%=      5-min Rain = 0
KHO1 231100Z 21005KT 20/19 A2996 RMK A01 T02000190  RH  094%=      5-min Rain = 0
KHO1 231101Z 21005KT 20/19 A2996 RMK A01 T02000190  RH  094%=      5-min Rain = 0
KHO1 231102Z 21005KT 20/19 A2996 RMK A01 T02000190  RH  094%=      5-min Rain = 0
KHO1 231103Z 22005KT 20/19 A2996 RMK A01 T02000190  RH  094%=      5-min Rain = 0
KHO1 231104Z 22005KT 20/19 A2996 RMK A01 T02000190  RH  094%=      5-min Rain = 0
KHO1 231105Z 23004KT 20/19 A2996 RMK A01 T01990190  RH  094%=      5-min Rain = 0
KHO1 231106Z 24004KT 20/19 A2996 RMK A01 T01990190  RH  094%=      5-min Rain = 0
KHO1 231107Z 24004KT 20/19 A2996 RMK A01 T01990190  RH  095%=      5-min Rain = 0
KHO1 231108Z 24004KT 20/19 A2996 RMK A01 T01990190  RH  095%=      5-min Rain = 0
KHO1 231109Z 24004KT 20/19 A2996 RMK A01 T01990190  RH  094%=      5-min Rain = 0
KHO1 231110Z 24004KT 20/19 A2996 RMK A01 T01980189  RH  094%=      5-min Rain = 0
KHO1 231111Z 24004KT 20/19 A2996 RMK A01 T01980189  RH  095%=      5-min Rain = 0
KHO1 231112Z 25004KT 20/19 A2996 RMK A01 T01980189  RH  095%=      5-min Rain = 0
KHO1 231113Z 25004KT 20/19 A2996 RMK A01 T01980189  RH  095%=      5-min Rain = 0
KHO1 231114Z 24004KT 20/19 A2996 RMK A01 T01980188  RH  094%=      5-min Rain = 0
KHO1 231115Z 24003KT 20/19 A2996 RMK A01 T01970188  RH  095%=      5-min Rain = 0
KHO1 231116Z 24004KT 20/19 A2996 RMK A01 T01970188  RH  094%=      5-min Rain = 0
KHO1 231117Z 25004KT 20/19 A2996 RMK A01 T01960188  RH  095%=      5-min Rain = 0
KHO1 231118Z 25004KT 20/19 A2996 RMK A01 T01960187  RH  095%=      5-min Rain = 0
KHO1 231119Z 25004KT 20/19 A2996 RMK A01 T01960187  RH  095%=      5-min Rain = 0
KHO1 231120Z 26004KT 20/19 A2996 RMK A01 T01950187  RH  095%=      5-min Rain = 0
KHO1 231121Z 26004KT 20/19 A2996 RMK A01 T01950187  RH  095%=      5-min Rain = 0
KHO1 231122Z 27004KT 20/19 A2996 RMK A01 T01950187  RH  095%=      5-min Rain = 0
KHO1 231123Z 27004KT 20/19 A2996 RMK A01 T01950187  RH  095%=      5-min Rain = 0
KHO1 231124Z 28004KT 20/19 A2996 RMK A01 T01950187  RH  095%=      5-min Rain = 0
KHO1 231125Z 28004KT 19/19 A2996 RMK A01 T01940187  RH  095%=      5-min Rain = 0
KHO1 231126Z 28004KT 19/19 A2997 RMK A01 T01940186  RH  095%=      5-min Rain = 0
KHO1 231127Z 28004KT 19/19 A2997 RMK A01 T01940186  RH  095%=      5-min Rain = 0
KHO1 231128Z 28005KT 19/19 A2997 RMK A01 T01940187  RH  095%=      5-min Rain = 0
KHO1 231129Z 29004KT 19/19 A2997 RMK A01 T01940187  RH  095%=      5-min Rain = 0
KHO1 231130Z 29004KT 19/19 A2997 RMK A01 T01940186  RH  095%=      5-min Rain = 0
KHO1 231131Z 30004KT 19/19 A2997 RMK A01 T01940186  RH  095%=      5-min Rain = 0
KHO1 231132Z 29004KT 19/19 A2997 RMK A01 T01940186  RH  095%=      5-min Rain = 0
KHO1 231133Z 30003KT 19/18 A2997 RMK A01 T01930184  RH  095%=      5-min Rain = 0
KHO1 231134Z 31004KT 19/18 A2997 RMK A01 T01920184  RH  095%=      5-min Rain = 0
KHO1 231135Z 31005KT 19/18 A2997 RMK A01 T01920183  RH  095%=      5-min Rain = 0
KHO1 231136Z 30005KT 19/18 A2997 RMK A01 T01910183  RH  095%=      5-min Rain = 0
KHO1 231137Z 30005KT 19/18 A2997 RMK A01 T01900182  RH  095%=      5-min Rain = 0
KHO1 231138Z 30005KT 19/18 A2997 RMK A01 T01900182  RH  095%=      5-min Rain = 0
KHO1 231139Z 30005KT 19/18 A2997 RMK A01 T01890181  RH  095%=      5-min Rain = 0
KHO1 231140Z 30005KT 19/18 A2997 RMK A01 T01890181  RH  095%=      5-min Rain = 0
KHO1 231141Z 30005KT 19/18 A2997 RMK A01 T01880181  RH  095%=      5-min Rain = 0
KHO1 231142Z 31005KT 19/18 A2997 RMK A01 T01880180  RH  095%=      5-min Rain = 0
KHO1 231143Z 31006KT 19/18 A2997 RMK A01 T01870179  RH  095%=      5-min Rain = 0
KHO1 231144Z 31005KT 19/18 A2997 RMK A01 T01870176  RH  094%=      5-min Rain = 0
KHO1 231145Z 31007KT 19/17 A2997 RMK A01 T01860174  RH  093%=      5-min Rain = 0
KHO1 231146Z 32005KT 19/17 A2997 RMK A01 T01850170  RH  091%=      5-min Rain = 0
KHO1 231147Z 31006KT 18/17 A2997 RMK A01 T01840165  RH  089%=      5-min Rain = 0
KHO1 231148Z 32007KT 18/16 A2997 RMK A01 T01830159  RH  086%=      5-min Rain = 0
KHO1 231149Z 32007KT 18/16 A2997 RMK A01 T01830158  RH  085%=      5-min Rain = 0
KHO1 231150Z 32008KT 18/16 A2997 RMK A01 T01840155  RH  083%=      5-min Rain = 0
KHO1 231151Z 31008KT 18/15 A2997 RMK A01 T01840153  RH  082%=      5-min Rain = 0
KHO1 231152Z 31008KT 19/15 A2997 RMK A01 T01850152  RH  081%=      5-min Rain = 0
KHO1 231153Z 31008KT 18/15 A2997 RMK A01 T01840148  RH  079%=      5-min Rain = 0
KHO1 231154Z 31008KT 18/14 A2997 RMK A01 T01840141  RH  076%=      5-min Rain = 0
KHO1 231155Z 32008KT 18/14 A2997 RMK A01 T01840139  RH  075%=      5-min Rain = 0
KHO1 231156Z 32008KT 18/13 A2997 RMK A01 T01840134  RH  073%=      5-min Rain = 0
KHO1 231157Z 31008KT 18/13 A2997 RMK A01 T01840132  RH  071%=      5-min Rain = 0
KHO1 231158Z 32007KT 19/13 A2997 RMK A01 T01850125  RH  068%=      5-min Rain = 0
KHO1 231159Z 32007KT 19/12 A2997 RMK A01 T01850121  RH  066%=      5-min Rain = 0
KHO1 231200Z 32007KT 19/12 A2998 RMK A01 T01860120  RH  066%=      5-min Rain = 0
KHO1 231201Z 32008KT 19/12 A2998 RMK A01 T01850116  RH  064%=      5-min Rain = 0
KHO1 231202Z 32008KT 19/11 A2998 RMK A01 T01860110  RH  062%=      5-min Rain = 0
KHO1 231203Z 33007KT 19/11 A2998 RMK A01 T01860105  RH  059%=      5-min Rain = 0
KHO1 231204Z 33008KT 19/10 A2998 RMK A01 T01870102  RH  058%=      5-min Rain = 0
KHO1 231205Z 33008KT 19/10 A2998 RMK A01 T01880097  RH  055%=      5-min Rain = 0
KHO1 231206Z 33008KT 19/09 A2998 RMK A01 T01890088  RH  052%=      5-min Rain = 0
KHO1 231207Z 33008KT 19/08 A2998 RMK A01 T01910083  RH  050%=      5-min Rain = 0
KHO1 231208Z 33009KT 19/08 A2998 RMK A01 T01930080  RH  048%=      5-min Rain = 0
KHO1 231209Z 32008KT 19/08 A2998 RMK A01 T01940078  RH  047%=      5-min Rain = 0
KHO1 231210Z 32007KT 19/08 A2998 RMK A01 T01940079  RH  047%=      5-min Rain = 0
KHO1 231211Z 32008KT 19/08 A2998 RMK A01 T01940075  RH  046%=      5-min Rain = 0
KHO1 231212Z 32006KT 19/08 A2998 RMK A01 T01940078  RH  047%=      5-min Rain = 0
KHO1 231213Z 32007KT 19/08 A2998 RMK A01 T01940076  RH  046%=      5-min Rain = 0
KHO1 231214Z 32007KT 19/08 A2998 RMK A01 T01930076  RH  047%=      5-min Rain = 0
KHO1 231215Z 31007KT 19/08 A2998 RMK A01 T01920077  RH  047%=      5-min Rain = 0
KHO1 231216Z 32007KT 19/08 A2998 RMK A01 T01910081  RH  049%=      5-min Rain = 0
KHO1 231217Z 32006KT 19/08 A2998 RMK A01 T01890080  RH  049%=      5-min Rain = 0
KHO1 231218Z 32007KT 19/08 A2998 RMK A01 T01880079  RH  049%=      5-min Rain = 0
KHO1 231219Z 32006KT 19/08 A2998 RMK A01 T01870079  RH  050%=      5-min Rain = 0
KHO1 231220Z 32007KT 19/08 A2998 RMK A01 T01860078  RH  049%=      5-min Rain = 0
KHO1 231221Z 32007KT 19/08 A2998 RMK A01 T01850076  RH  049%=      5-min Rain = 0
KHO1 231222Z 32007KT 19/07 A2998 RMK A01 T01850074  RH  048%=      5-min Rain = 0
KHO1 231223Z 33007KT 19/07 A2998 RMK A01 T01850074  RH  048%=      5-min Rain = 0
KHO1 231224Z 33007KT 19/07 A2998 RMK A01 T01850070  RH  047%=      5-min Rain = 0
KHO1 231225Z 32007KT 19/07 A2998 RMK A01 T01850068  RH  047%=      5-min Rain = 0
KHO1 231226Z 32007KT 19/07 A2998 RMK A01 T01850069  RH  047%=      5-min Rain = 0
KHO1 231227Z 32008KT 19/07 A2998 RMK A01 T01850065  RH  045%=      5-min Rain = 0
KHO1 231228Z 32007KT 19/06 A2998 RMK A01 T01850063  RH  045%=      5-min Rain = 0
KHO1 231229Z 32008KT 19/06 A2998 RMK A01 T01860061  RH  044%=      5-min Rain = 0
KHO1 231230Z 32008KT 19/06 A2998 RMK A01 T01860060  RH  044%=      5-min Rain = 0
KHO1 231231Z 32007KT 19/06 A2998 RMK A01 T01860060  RH  044%=      5-min Rain = 0
KHO1 231232Z 32007KT 19/06 A2998 RMK A01 T01850059  RH  043%=      5-min Rain = 0
KHO1 231233Z 32007KT 19/06 A2998 RMK A01 T01850057  RH  043%=      5-min Rain = 0
KHO1 231234Z 32008KT 19/06 A2999 RMK A01 T01850057  RH  043%=      5-min Rain = 0
KHO1 231235Z 33008KT 19/06 A2999 RMK A01 T01850056  RH  043%=      5-min Rain = 0
KHO1 231236Z 33009KT 19/05 A2999 RMK A01 T01850052  RH  041%=      5-min Rain = 0
KHO1 231237Z 32007KT 19/05 A2999 RMK A01 T01850054  RH  042%=      5-min Rain = 0
KHO1 231238Z 33008KT 19/05 A2999 RMK A01 T01850053  RH  042%=      5-min Rain = 0
KHO1 231239Z 33008KT 18/05 A2999 RMK A01 T01840054  RH  042%=      5-min Rain = 0
KHO1 231240Z 33009KT 18/05 A2999 RMK A01 T01840049  RH  041%=      5-min Rain = 0
KHO1 231241Z 33007KT 18/05 A2999 RMK A01 T01840049  RH  041%=      5-min Rain = 0
KHO1 231242Z 33008KT 18/05 A2999 RMK A01 T01840047  RH  040%=      5-min Rain = 0
KHO1 231243Z 33009KT 18/05 A2998 RMK A01 T01840045  RH  040%=      5-min Rain = 0
KHO1 231244Z 34009KT 19/05 A2999 RMK A01 T01850045  RH  040%=      5-min Rain = 0
KHO1 231245Z 34009KT 19/05 A2999 RMK A01 T01850046  RH  040%=      5-min Rain = 0
KHO1 231246Z 34009KT 19/05 A2999 RMK A01 T01850047  RH  040%=      5-min Rain = 0
KHO1 231247Z 34009KT 18/05 A2999 RMK A01 T01840046  RH  040%=      5-min Rain = 0
KHO1 231248Z 34009KT 18/05 A2999 RMK A01 T01840045  RH  040%=      5-min Rain = 0
KHO1 231249Z 34008KT 18/05 A2999 RMK A01 T01840046  RH  040%=      5-min Rain = 0
KHO1 231250Z 34009KT 18/04 A2999 RMK A01 T01840043  RH  039%=      5-min Rain = 0
KHO1 231251Z 34008KT 19/04 A2999 RMK A01 T01850044  RH  039%=      5-min Rain = 0
KHO1 231252Z 34009KT 19/04 A2999 RMK A01 T01850042  RH  039%=      5-min Rain = 0
KHO1 231253Z 34009KT 19/04 A2999 RMK A01 T01850042  RH  039%=      5-min Rain = 0
KHO1 231254Z 34009KT 19/04 A2999 RMK A01 T01860039  RH  038%=      5-min Rain = 0
KHO1 231255Z 34010KT 19/04 A2999 RMK A01 T01860039  RH  038%=      5-min Rain = 0
KHO1 231256Z 34009KT 19/04 A2999 RMK A01 T01860041  RH  038%=      5-min Rain = 0
KHO1 231257Z 34010KT 19/04 A2999 RMK A01 T01870040  RH  038%=      5-min Rain = 0
KHO1 231258Z 34011KT 19/04 A2999 RMK A01 T01880039  RH  037%=      5-min Rain = 0
KHO1 231259Z 34011KT 19/04 A2999 RMK A01 T01880039  RH  037%=      5-min Rain = 0
KHO1 231300Z 34009KT 19/04 A2999 RMK A01 T01880040  RH  037%=      5-min Rain = 0
KHO1 231301Z 34010KT 19/04 A2999 RMK A01 T01880040  RH  037%=      5-min Rain = 0
KHO1 231302Z 35010KT 19/04 A2999 RMK A01 T01880041  RH  038%=      5-min Rain = 0
KHO1 231303Z 34011KT 19/04 A2999 RMK A01 T01880040  RH  037%=      5-min Rain = 0
KHO1 231304Z 34010KT 19/04 A2999 RMK A01 T01890042  RH  038%=      5-min Rain = 0
KHO1 231305Z 34011KT 19/04 A2999 RMK A01 T01890042  RH  038%=      5-min Rain = 0
KHO1 231306Z 35008KT 19/04 A30 RMK A01 T01900044  RH  038%=      5-min Rain = 0
KHO1 231307Z 35009KT 19/04 A30 RMK A01 T01900044  RH  038%=      5-min Rain = 0
KHO1 231308Z 35010KT 19/04 A30 RMK A01 T01910044  RH  038%=      5-min Rain = 0
KHO1 231309Z 35010KT 19/05 A30 RMK A01 T01910045  RH  038%=      5-min Rain = 0
KHO1 231310Z 35011KT 19/05 A30 RMK A01 T01910045  RH  038%=      5-min Rain = 0
KHO1 231311Z 35010KT 19/05 A30 RMK A01 T01910046  RH  039%=      5-min Rain = 0
KHO1 231312Z 35010KT 19/05 A30 RMK A01 T01910047  RH  039%=      5-min Rain = 0
KHO1 231313Z 36010KT 19/05 A30 RMK A01 T01910049  RH  039%=      5-min Rain = 0
KHO1 231314Z 35011KT 19/05 A30 RMK A01 T01920050  RH  039%=      5-min Rain = 0
KHO1 231315Z 35012KT 19/05 A30 RMK A01 T01920051  RH  040%=      5-min Rain = 0
KHO1 231316Z 35010KT 19/05 A30 RMK A01 T01920052  RH  040%=      5-min Rain = 0
KHO1 231317Z 35009KT 19/05 A30 RMK A01 T01920053  RH  040%=      5-min Rain = 0
KHO1 231318Z 35011KT 19/05 A30 RMK A01 T01920054  RH  040%=      5-min Rain = 0
KHO1 231319Z 36012KT 19/06 A30 RMK A01 T01920056  RH  041%=      5-min Rain = 0
KHO1 231320Z 00014KT 19/06 A30 RMK A01 T01910058  RH  042%=      5-min Rain = 0
KHO1 231321Z 00014KT 19/06 A30 RMK A01 T01900060  RH  042%=      5-min Rain = 0
KHO1 231322Z 01013KT 19/06 A30 RMK A01 T01900061  RH  043%=      5-min Rain = 0
KHO1 231323Z 36012KT 19/06 A30 RMK A01 T01900063  RH  044%=      5-min Rain = 0
KHO1 231324Z 00012KT 19/07 A30 RMK A01 T01900066  RH  044%=      5-min Rain = 0
KHO1 231325Z 00011KT 19/07 A30 RMK A01 T01900066  RH  044%=      5-min Rain = 0
KHO1 231326Z 00011KT 19/07 A30 RMK A01 T01910067  RH  045%=      5-min Rain = 0
KHO1 231327Z 36012KT 19/07 A30 RMK A01 T01910068  RH  045%=      5-min Rain = 0
KHO1 231328Z 01010KT 19/07 A30 RMK A01 T01910070  RH  045%=      5-min Rain = 0
KHO1 231329Z 01013KT 19/07 A30 RMK A01 T01920071  RH  045%=      5-min Rain = 0
KHO1 231330Z 01012KT 19/07 A30 RMK A01 T01920072  RH  046%=      5-min Rain = 0
KHO1 231331Z 01015KT 19/07 A30 RMK A01 T01920073  RH  046%=      5-min Rain = 0
KHO1 231332Z 01015KT 19/07 A30 RMK A01 T01910074  RH  047%=      5-min Rain = 0
KHO1 231333Z 01014KT 19/08 A30 RMK A01 T01900076  RH  047%=      5-min Rain = 0
KHO1 231334Z 00013KT 19/08 A30 RMK A01 T01900077  RH  048%=      5-min Rain = 0
KHO1 231335Z 00013KT 19/08 A30 RMK A01 T01900078  RH  048%=      5-min Rain = 0
KHO1 231336Z 36015KT 19/08 A30 RMK A01 T01910079  RH  048%=      5-min Rain = 0
KHO1 231337Z 36014KT 19/08 A30 RMK A01 T01900080  RH  049%=      5-min Rain = 0
KHO1 231338Z 36013KT 19/08 A30 RMK A01 T01900081  RH  049%=      5-min Rain = 0
KHO1 231339Z 01010KT 19/08 A30 RMK A01 T01910083  RH  049%=      5-min Rain = 0
KHO1 231340Z 00013KT 19/08 A30 RMK A01 T01930084  RH  049%=      5-min Rain = 0
KHO1 231341Z 01014KT 19/09 A30 RMK A01 T01920086  RH  050%=      5-min Rain = 0
KHO1 231342Z 00014KT 19/09 A30 RMK A01 T01920087  RH  050%=      5-min Rain = 0
KHO1 231343Z 00013KT 19/09 A30 RMK A01 T01920087  RH  051%=      5-min Rain = 0
KHO1 231344Z 01013KT 19/09 A30 RMK A01 T01920088  RH  051%=      5-min Rain = 0
KHO1 231345Z 00011KT 19/09 A30 RMK A01 T01920088  RH  051%=      5-min Rain = 0
KHO1 231346Z 01012KT 19/09 A30 RMK A01 T01930089  RH  051%=      5-min Rain = 0
KHO1 231347Z 00011KT 19/09 A3001 RMK A01 T01940091  RH  051%=      5-min Rain = 0
KHO1 231348Z 00010KT 20/09 A30 RMK A01 T01950092  RH  051%=      5-min Rain = 0
KHO1 231349Z 01011KT 20/09 A3001 RMK A01 T01970093  RH  051%=      5-min Rain = 0
KHO1 231350Z 01009KT 20/09 A3001 RMK A01 T01970093  RH  051%=      5-min Rain = 0
KHO1 231351Z 00010KT 20/09 A3001 RMK A01 T01980094  RH  051%=      5-min Rain = 0
KHO1 231352Z 00014KT 20/10 A3001 RMK A01 T01990095  RH  051%=      5-min Rain = 0
KHO1 231353Z 01013KT 20/10 A3001 RMK A01 T01970096  RH  052%=      5-min Rain = 0
KHO1 231354Z 01014KT 20/10 A3001 RMK A01 T01980097  RH  052%=      5-min Rain = 0
KHO1 231355Z 36012KT 20/10 A3001 RMK A01 T01980098  RH  053%=      5-min Rain = 0
KHO1 231356Z 35012KT 20/10 A3001 RMK A01 T01990099  RH  053%=      5-min Rain = 0
KHO1 231357Z 36013KT 20/10 A3001 RMK A01 T01990100  RH  053%=      5-min Rain = 0
KHO1 231358Z 35012KT 20/10 A3001 RMK A01 T01990101  RH  053%=      5-min Rain = 0
KHO1 231359Z 35012KT 20/10 A3001 RMK A01 T01990101  RH  053%=      5-min Rain = 0
KHO1 231400Z 00011KT 20/10 A3001 RMK A01 T02000102  RH  053%=      5-min Rain = 0
KHO1 231401Z 01013KT 20/10 A3001 RMK A01 T02010102  RH  053%=      5-min Rain = 0
KHO1 231402Z 01013KT 20/10 A3001 RMK A01 T02010103  RH  053%=      5-min Rain = 0
KHO1 231403Z 00012KT 20/10 A3001 RMK A01 T02020103  RH  053%=      5-min Rain = 0
KHO1 231404Z 00009KT 20/10 A3001 RMK A01 T02020104  RH  053%=      5-min Rain = 0
KHO1 231405Z 35011KT 20/10 A3001 RMK A01 T02040104  RH  053%=      5-min Rain = 0
KHO1 231406Z 35012KT 21/11 A3001 RMK A01 T02050105  RH  053%=      5-min Rain = 0
KHO1 231407Z 35013KT 20/11 A3001 RMK A01 T02040105  RH  053%=      5-min Rain = 0
KHO1 231408Z 35012KT 20/11 A3001 RMK A01 T02040105  RH  053%=      5-min Rain = 0
KHO1 231409Z 35012KT 20/11 A3001 RMK A01 T02030105  RH  053%=      5-min Rain = 0
KHO1 231410Z 00010KT 20/11 A3001 RMK A01 T02030105  RH  053%=      5-min Rain = 0
KHO1 231411Z 34011KT 20/11 A3001 RMK A01 T02040106  RH  053%=      5-min Rain = 0
KHO1 231412Z 36011KT 21/11 A3001 RMK A01 T02050106  RH  053%=      5-min Rain = 0
KHO1 231413Z 35011KT 21/11 A3001 RMK A01 T02050106  RH  053%=      5-min Rain = 0
KHO1 231414Z 35012KT 21/11 A3001 RMK A01 T02050107  RH  053%=      5-min Rain = 0
KHO1 231415Z 35012KT 21/11 A3001 RMK A01 T02050107  RH  053%=      5-min Rain = 0
KHO1 231416Z 35013KT 21/11 A3001 RMK A01 T02050107  RH  053%=      5-min Rain = 0
KHO1 231417Z 35010KT 21/11 A3001 RMK A01 T02060108  RH  054%=      5-min Rain = 0
KHO1 231418Z 35011KT 21/11 A3001 RMK A01 T02060109  RH  054%=      5-min Rain = 0
KHO1 231419Z 34013KT 21/11 A3001 RMK A01 T02070110  RH  054%=      5-min Rain = 0
KHO1 231420Z 34012KT 21/11 A3001 RMK A01 T02090111  RH  053%=      5-min Rain = 0
KHO1 231421Z 34012KT 21/11 A3001 RMK A01 T02100111  RH  053%=      5-min Rain = 0
KHO1 231422Z 34012KT 21/11 A3001 RMK A01 T02100111  RH  053%=      5-min Rain = 0
KHO1 231423Z 34013KT 21/11 A3001 RMK A01 T02110110  RH  052%=      5-min Rain = 0
KHO1 231424Z 35014KT 21/11 A3001 RMK A01 T02110108  RH  052%=      5-min Rain = 0
KHO1 231425Z 35010KT 21/11 A3001 RMK A01 T02090109  RH  053%=      5-min Rain = 0
KHO1 231426Z 34010KT 21/11 A3001 RMK A01 T02120110  RH  052%=      5-min Rain = 0
KHO1 231427Z 34012KT 21/11 A3001 RMK A01 T02130108  RH  051%=      5-min Rain = 0
KHO1 231428Z 35011KT 21/11 A3001 RMK A01 T02120108  RH  051%=      5-min Rain = 0
KHO1 231429Z 35010KT 21/11 A3002 RMK A01 T02120109  RH  052%=      5-min Rain = 0
KHO1 231430Z 35011KT 21/11 A3002 RMK A01 T02130108  RH  051%=      5-min Rain = 0
KHO1 231431Z 36012KT 21/11 A3002 RMK A01 T02140108  RH  051%=      5-min Rain = 0
KHO1 231432Z 35012KT 21/11 A3002 RMK A01 T02140108  RH  051%=      5-min Rain = 0
KHO1 231433Z 35011KT 21/11 A3002 RMK A01 T02140108  RH  051%=      5-min Rain = 0
KHO1 231434Z 35012KT 22/11 A3002 RMK A01 T02150108  RH  050%=      5-min Rain = 0
KHO1 231435Z 00011KT 21/11 A3002 RMK A01 T02140108  RH  051%=      5-min Rain = 0
KHO1 231436Z 36011KT 21/11 A3002 RMK A01 T02140108  RH  051%=      5-min Rain = 0
KHO1 231437Z 00010KT 21/11 A3002 RMK A01 T02140109  RH  051%=      5-min Rain = 0
KHO1 231438Z 36009KT 22/11 A3002 RMK A01 T02160110  RH  051%=      5-min Rain = 0
KHO1 231439Z 35010KT 22/11 A3002 RMK A01 T02180111  RH  051%=      5-min Rain = 0
KHO1 231440Z 36009KT 22/11 A3002 RMK A01 T02200111  RH  050%=      5-min Rain = 0
KHO1 231441Z 00012KT 22/11 A3002 RMK A01 T02200110  RH  050%=      5-min Rain = 0
KHO1 231442Z 36011KT 22/11 A3002 RMK A01 T02200111  RH  050%=      5-min Rain = 0
KHO1 231443Z 00010KT 22/11 A3002 RMK A01 T02200111  RH  050%=      5-min Rain = 0
KHO1 231444Z 01011KT 22/11 A3002 RMK A01 T02210111  RH  049%=      5-min Rain = 0
KHO1 231445Z 01012KT 22/11 A3002 RMK A01 T02210110  RH  049%=      5-min Rain = 0
KHO1 231446Z 00013KT 22/11 A3002 RMK A01 T02210110  RH  049%=      5-min Rain = 0
KHO1 231447Z 35011KT 22/11 A3002 RMK A01 T02200110  RH  050%=      5-min Rain = 0
KHO1 231448Z 35010KT 22/11 A3002 RMK A01 T02200111  RH  050%=      5-min Rain = 0
KHO1 231449Z 35010KT 22/11 A3002 RMK A01 T02210112  RH  050%=      5-min Rain = 0
KHO1 231450Z 36010KT 22/11 A3002 RMK A01 T02200111  RH  050%=      5-min Rain = 0
KHO1 231451Z 35010KT 22/11 A3002 RMK A01 T02210111  RH  050%=      5-min Rain = 0
KHO1 231452Z 35011KT 22/11 A3002 RMK A01 T02230112  RH  049%=      5-min Rain = 0
KHO1 231453Z 36010KT 22/11 A3002 RMK A01 T02230112  RH  049%=      5-min Rain = 0
KHO1 231454Z 35008KT 23/11 A3002 RMK A01 T02260114  RH  049%=      5-min Rain = 0
KHO1 231455Z 36010KT 23/11 A3002 RMK A01 T02290113  RH  048%=      5-min Rain = 0
KHO1 231456Z 00008KT 23/11 A3002 RMK A01 T02290112  RH  048%=      5-min Rain = 0
KHO1 231457Z 00009KT 23/11 A3002 RMK A01 T02290113  RH  048%=      5-min Rain = 0
KHO1 231458Z 34010KT 23/11 A3002 RMK A01 T02290112  RH  047%=      5-min Rain = 0
KHO1 231459Z 35011KT 23/11 A3002 RMK A01 T02300111  RH  047%=      5-min Rain = 0
KHO1 231500Z 35011KT 23/11 A3002 RMK A01 T02290110  RH  047%=      5-min Rain = 0
KHO1 231501Z 35010KT 23/11 A3002 RMK A01 T02280110  RH  047%=      5-min Rain = 0
KHO1 231502Z 35010KT 23/11 A3002 RMK A01 T02270111  RH  048%=      5-min Rain = 0
KHO1 231503Z 34010KT 23/11 A3002 RMK A01 T02290112  RH  048%=      5-min Rain = 0
KHO1 231504Z 35008KT 23/11 A3002 RMK A01 T02320113  RH  047%=      5-min Rain = 0
KHO1 231505Z 35010KT 23/11 A3002 RMK A01 T02340109  RH  045%=      5-min Rain = 0
KHO1 231506Z 35010KT 23/11 A3002 RMK A01 T02340109  RH  045%=      5-min Rain = 0
KHO1 231507Z 35009KT 23/11 A3002 RMK A01 T02340111  RH  046%=      5-min Rain = 0
KHO1 231508Z 36008KT 23/11 A3002 RMK A01 T02320111  RH  046%=      5-min Rain = 0
KHO1 231509Z 00010KT 23/11 A3002 RMK A01 T02330110  RH  046%=      5-min Rain = 0
KHO1 231510Z 35007KT 23/11 A3002 RMK A01 T02340109  RH  045%=      5-min Rain = 0
KHO1 231511Z 35008KT 24/11 A3002 RMK A01 T02350110  RH  045%=      5-min Rain = 0
KHO1 231512Z 35009KT 24/11 A3002 RMK A01 T02360111  RH  045%=      5-min Rain = 0
KHO1 231513Z 00008KT 24/11 A3002 RMK A01 T02350110  RH  045%=      5-min Rain = 0
KHO1 231514Z 01008KT 24/11 A3002 RMK A01 T02360111  RH  045%=      5-min Rain = 0
KHO1 231515Z 35007KT 24/11 A3002 RMK A01 T02380111  RH  045%=      5-min Rain = 0
KHO1 231516Z 35007KT 24/11 A3002 RMK A01 T02390111  RH  045%=      5-min Rain = 0
KHO1 231517Z 35009KT 24/11 A3002 RMK A01 T02400109  RH  044%=      5-min Rain = 0
KHO1 231518Z 35008KT 24/11 A3002 RMK A01 T02400109  RH  044%=      5-min Rain = 0
KHO1 231519Z 35010KT 24/11 A3002 RMK A01 T02400106  RH  043%=      5-min Rain = 0
KHO1 231520Z 36009KT 24/11 A3002 RMK A01 T02400108  RH  044%=      5-min Rain = 0
KHO1 231521Z 35008KT 24/11 A3002 RMK A01 T02400110  RH  044%=      5-min Rain = 0
KHO1 231522Z 34009KT 24/11 A3002 RMK A01 T02410109  RH  044%=      5-min Rain = 0
KHO1 231523Z 35009KT 24/11 A3002 RMK A01 T02410107  RH  043%=      5-min Rain = 0
KHO1 231524Z 33009KT 24/11 A3002 RMK A01 T02420108  RH  043%=      5-min Rain = 0
KHO1 231525Z 35009KT 25/11 A3002 RMK A01 T02460109  RH  042%=      5-min Rain = 0
KHO1 231526Z 35009KT 25/11 A3002 RMK A01 T02470108  RH  041%=      5-min Rain = 0
KHO1 231527Z 34009KT 25/11 A3002 RMK A01 T02480107  RH  041%=      5-min Rain = 0
KHO1 231528Z 34009KT 25/11 A3002 RMK A01 T02490108  RH  041%=      5-min Rain = 0
KHO1 231529Z 36007KT 25/11 A3001 RMK A01 T02490109  RH  041%=      5-min Rain = 0
KHO1 231530Z 36008KT 25/11 A3001 RMK A01 T02490107  RH  041%=      5-min Rain = 0
KHO1 231531Z 35009KT 25/11 A3001 RMK A01 T02490106  RH  041%=      5-min Rain = 0
KHO1 231532Z 01009KT 25/11 A3001 RMK A01 T02480107  RH  041%=      5-min Rain = 0
KHO1 231533Z 35008KT 25/11 A3001 RMK A01 T02480108  RH  041%=      5-min Rain = 0
KHO1 231534Z 36010KT 25/11 A3001 RMK A01 T02510105  RH  040%=      5-min Rain = 0
KHO1 231535Z 00011KT 25/11 A3001 RMK A01 T02500106  RH  040%=      5-min Rain = 0
KHO1 231536Z 36010KT 25/11 A3001 RMK A01 T02490108  RH  041%=      5-min Rain = 0
KHO1 231537Z 35010KT 25/11 A3001 RMK A01 T02500107  RH  041%=      5-min Rain = 0
KHO1 231538Z 34010KT 25/11 A3001 RMK A01 T02530107  RH  040%=      5-min Rain = 0
KHO1 231539Z 35010KT 25/11 A3001 RMK A01 T02530107  RH  040%=      5-min Rain = 0
KHO1 231540Z 35012KT 25/11 A3001 RMK A01 T02530106  RH  040%=      5-min Rain = 0
KHO1 231541Z 36010KT 25/11 A3001 RMK A01 T02530109  RH  040%=      5-min Rain = 0
KHO1 231542Z 35010KT 25/11 A3001 RMK A01 T02540107  RH  040%=      5-min Rain = 0
KHO1 231543Z 35009KT 25/11 A3001 RMK A01 T02530106  RH  040%=      5-min Rain = 0
KHO1 231544Z 34010KT 25/10 A3001 RMK A01 T02540104  RH  039%=      5-min Rain = 0
KHO1 231545Z 34009KT 26/11 A3001 RMK A01 T02550106  RH  039%=      5-min Rain = 0
KHO1 231546Z 34009KT 26/11 A3001 RMK A01 T02560106  RH  039%=      5-min Rain = 0
KHO1 231547Z 35008KT 25/11 A3001 RMK A01 T02540105  RH  039%=      5-min Rain = 0
KHO1 231548Z 35009KT 26/11 A3001 RMK A01 T02550106  RH  039%=      5-min Rain = 0
KHO1 231549Z 34008KT 26/11 A3001 RMK A01 T02580105  RH  038%=      5-min Rain = 0
KHO1 231550Z 35008KT 26/10 A3001 RMK A01 T02610104  RH  037%=      5-min Rain = 0
KHO1 231551Z 34008KT 26/11 A3001 RMK A01 T02620105  RH  037%=      5-min Rain = 0
KHO1 231552Z 34009KT 26/10 A3001 RMK A01 T02620103  RH  037%=      5-min Rain = 0
KHO1 231553Z 35009KT 26/10 A3001 RMK A01 T02610099  RH  036%=      5-min Rain = 0
KHO1 231554Z 34009KT 26/10 A3001 RMK A01 T02580097  RH  036%=      5-min Rain = 0
KHO1 231555Z 34010KT 26/10 A3001 RMK A01 T02580100  RH  037%=      5-min Rain = 0
KHO1 231556Z 34008KT 26/10 A3001 RMK A01 T02570103  RH  038%=      5-min Rain = 0
KHO1 231557Z 34007KT 26/10 A3001 RMK A01 T02570104  RH  038%=      5-min Rain = 0
KHO1 231558Z 33009KT 26/10 A3001 RMK A01 T02590097  RH  036%=      5-min Rain = 0
KHO1 231559Z 34010KT 26/10 A3001 RMK A01 T02610101  RH  037%=      5-min Rain = 0
KHO1 231600Z 34009KT 26/10 A3001 RMK A01 T02610101  RH  037%=      5-min Rain = 0
KHO1 231601Z 34010KT 26/10 A3001 RMK A01 T02600095  RH  035%=      5-min Rain = 0
KHO1 231602Z 34009KT 26/09 A3001 RMK A01 T02610094  RH  035%=      5-min Rain = 0
KHO1 231603Z 34009KT 26/09 A3001 RMK A01 T02630090  RH  034%=      5-min Rain = 0
KHO1 231604Z 34008KT 26/09 A3001 RMK A01 T02630089  RH  033%=      5-min Rain = 0
KHO1 231605Z 34009KT 27/09 A3001 RMK A01 T02650091  RH  034%=      5-min Rain = 0
KHO1 231606Z 35009KT 26/09 A3001 RMK A01 T02640090  RH  033%=      5-min Rain = 0
KHO1 231607Z 35010KT 26/09 A3001 RMK A01 T02640091  RH  033%=      5-min Rain = 0
KHO1 231608Z 33010KT 27/09 A3001 RMK A01 T02650088  RH  033%=      5-min Rain = 0
KHO1 231609Z 33010KT 27/09 A3001 RMK A01 T02670086  RH  032%=      5-min Rain = 0
KHO1 231610Z 33009KT 27/08 A3001 RMK A01 T02670084  RH  032%=      5-min Rain = 0
KHO1 231611Z 33008KT 27/08 A3001 RMK A01 T02670084  RH  031%=      5-min Rain = 0
KHO1 231612Z 34007KT 27/09 A3001 RMK A01 T02670087  RH  032%=      5-min Rain = 0
KHO1 231613Z 35011KT 27/08 A3001 RMK A01 T02660082  RH  031%=      5-min Rain = 0
KHO1 231614Z 35011KT 27/08 A3001 RMK A01 T02680075  RH  030%=      5-min Rain = 0
KHO1 231615Z 35011KT 27/08 A3001 RMK A01 T02670075  RH  030%=      5-min Rain = 0
KHO1 231616Z 34009KT 27/08 A3001 RMK A01 T02670076  RH  030%=      5-min Rain = 0
KHO1 231617Z 34012KT 27/07 A3001 RMK A01 T02710067  RH  027%=      5-min Rain = 0
KHO1 231618Z 35009KT 27/07 A3001 RMK A01 T02710070  RH  028%=      5-min Rain = 0
KHO1 231619Z 34011KT 27/07 A3001 RMK A01 T02700068  RH  028%=      5-min Rain = 0
KHO1 231620Z 34010KT 27/07 A3001 RMK A01 T02710070  RH  028%=      5-min Rain = 0
KHO1 231621Z 33008KT 27/08 A3001 RMK A01 T02720076  RH  029%=      5-min Rain = 0
KHO1 231622Z 34010KT 27/08 A3001 RMK A01 T02740076  RH  029%=      5-min Rain = 0
KHO1 231623Z 34008KT 27/08 A3001 RMK A01 T02730077  RH  029%=      5-min Rain = 0
KHO1 231624Z 34008KT 27/08 A3001 RMK A01 T02720080  RH  030%=      5-min Rain = 0
KHO1 231625Z 34011G16KT 27/08 A3001 RMK A01 T02730075  RH  028%=      5-min Rain = 0
KHO1 231626Z 36010KT 27/07 A3001 RMK A01 T02730072  RH  028%=      5-min Rain = 0
KHO1 231627Z 00009KT 27/07 A3001 RMK A01 T02740072  RH  028%=      5-min Rain = 0
KHO1 231628Z 36011KT 27/07 A3001 RMK A01 T02740070  RH  027%=      5-min Rain = 0
KHO1 231629Z 35010KT 27/07 A3001 RMK A01 T02740069  RH  027%=      5-min Rain = 0
KHO1 231630Z 35013KT 28/07 A3001 RMK A01 T02770066  RH  026%=      5-min Rain = 0
KHO1 231631Z 35012KT 28/07 A3001 RMK A01 T02760065  RH  026%=      5-min Rain = 0
KHO1 231632Z 35010KT 27/06 A3001 RMK A01 T02730057  RH  025%=      5-min Rain = 0
KHO1 231633Z 01011KT 27/05 A3001 RMK A01 T02740046  RH  023%=      5-min Rain = 0
KHO1 231634Z 01010KT 28/05 A3001 RMK A01 T02760049  RH  024%=      5-min Rain = 0
KHO1 231635Z 00014KT 28/05 A3001 RMK A01 T02780054  RH  024%=      5-min Rain = 0
KHO1 231636Z 01010KT 28/06 A3001 RMK A01 T02770056  RH  025%=      5-min Rain = 0
KHO1 231637Z 34011KT 28/05 A3001 RMK A01 T02780054  RH  024%=      5-min Rain = 0
KHO1 231638Z 33011KT 28/06 A3001 RMK A01 T02790055  RH  024%=      5-min Rain = 0
KHO1 231639Z 00009KT 28/06 A3001 RMK A01 T02780057  RH  024%=      5-min Rain = 0
KHO1 231640Z 36009KT 28/06 A3001 RMK A01 T02770056  RH  024%=      5-min Rain = 0
KHO1 231641Z 36010G15KT 28/05 A3001 RMK A01 T02770054  RH  024%=      5-min Rain = 0
KHO1 231642Z 35012KT 28/04 A3001 RMK A01 T02770041  RH  022%=      5-min Rain = 0
KHO1 231643Z 35012KT 28/05 A3001 RMK A01 T02780053  RH  024%=      5-min Rain = 0
KHO1 231644Z 34009KT 28/05 A3001 RMK A01 T02780053  RH  024%=      5-min Rain = 0
KHO1 231645Z 35008KT 28/06 A3001 RMK A01 T02790058  RH  025%=      5-min Rain = 0
KHO1 231646Z 35008G13KT 28/05 A3001 RMK A01 T02800054  RH  024%=      5-min Rain = 0
KHO1 231647Z 34010KT 28/05 A3001 RMK A01 T02820048  RH  023%=      5-min Rain = 0
KHO1 231648Z 34008KT 28/05 A3001 RMK A01 T02810050  RH  023%=      5-min Rain = 0
KHO1 231649Z 35011KT 28/06 A3001 RMK A01 T02830055  RH  023%=      5-min Rain = 0
KHO1 231650Z 34010KT 28/06 A3001 RMK A01 T02820060  RH  024%=      5-min Rain = 0
KHO1 231651Z 34009G14KT 28/06 A3001 RMK A01 T02810062  RH  025%=      5-min Rain = 0
KHO1 231652Z 01009KT 28/06 A3001 RMK A01 T02800061  RH  025%=      5-min Rain = 0
KHO1 231653Z 34008KT 28/06 A3001 RMK A01 T02800059  RH  025%=      5-min Rain = 0
KHO1 231654Z 36006KT 28/06 A3001 RMK A01 T02800058  RH  024%=      5-min Rain = 0
KHO1 231655Z 01007KT 28/06 A3001 RMK A01 T02820056  RH  024%=      5-min Rain = 0
KHO1 231656Z 35009KT 29/05 A3001 RMK A01 T02850054  RH  023%=      5-min Rain = 0
KHO1 231657Z 34008KT 28/06 A3001 RMK A01 T02840060  RH  024%=      5-min Rain = 0
KHO1 231658Z 34008KT 29/06 A3001 RMK A01 T02850060  RH  024%=      5-min Rain = 0
KHO1 231659Z 34007KT 29/06 A3001 RMK A01 T02860058  RH  024%=      5-min Rain = 0
KHO1 231700Z 34007KT 29/06 A3001 RMK A01 T02860056  RH  023%=      5-min Rain = 0
KHO1 231701Z 33011G16KT 29/05 A3001 RMK A01 T02880054  RH  023%=      5-min Rain = 0
KHO1 231702Z 33011KT 29/05 A3001 RMK A01 T02890053  RH  022%=      5-min Rain = 0
KHO1 231703Z 34009KT 29/05 A3001 RMK A01 T02900053  RH  022%=      5-min Rain = 0
KHO1 231704Z 33006KT 29/05 A3001 RMK A01 T02890053  RH  022%=      5-min Rain = 0
KHO1 231705Z 32008KT 29/05 A3001 RMK A01 T02880053  RH  022%=      5-min Rain = 0
KHO1 231706Z 34009KT 29/05 A3001 RMK A01 T02870053  RH  022%=      5-min Rain = 0
KHO1 231707Z 01006KT 29/05 A3001 RMK A01 T02880052  RH  022%=      5-min Rain = 0
KHO1 231708Z 01008KT 29/05 A3001 RMK A01 T02890052  RH  022%=      5-min Rain = 0
KHO1 231709Z 34008KT 29/05 A3001 RMK A01 T02900054  RH  022%=      5-min Rain = 0
KHO1 231710Z 35010KT 29/05 A3001 RMK A01 T02880052  RH  022%=      5-min Rain = 0
KHO1 231711Z 36009KT 29/05 A3001 RMK A01 T02870048  RH  022%=      5-min Rain = 0
KHO1 231712Z 01006KT 29/05 A3001 RMK A01 T02870045  RH  021%=      5-min Rain = 0
KHO1 231713Z 01006G11KT 29/05 A3001 RMK A01 T02860048  RH  022%=      5-min Rain = 0
KHO1 231714Z 36010KT 29/04 A3001 RMK A01 T02880038  RH  020%=      5-min Rain = 0
KHO1 231715Z 36009KT 29/03 A3001 RMK A01 T02890030  RH  019%=      5-min Rain = 0
KHO1 231716Z 35008KT 29/04 A3001 RMK A01 T02890035  RH  020%=      5-min Rain = 0
KHO1 231717Z 35009KT 29/04 A3001 RMK A01 T02920040  RH  020%=      5-min Rain = 0
KHO1 231718Z 36009KT 29/04 A3001 RMK A01 T02930038  RH  020%=      5-min Rain = 0
KHO1 231719Z 33010KT 29/04 A3001 RMK A01 T02920038  RH  020%=      5-min Rain = 0
KHO1 231720Z 32008KT 29/03 A3001 RMK A01 T02900033  RH  019%=      5-min Rain = 0
KHO1 231721Z 32007KT 29/04 A3001 RMK A01 T02890036  RH  020%=      5-min Rain = 0
KHO1 231722Z 34009KT 29/03 A3001 RMK A01 T02910028  RH  019%=      5-min Rain = 0
KHO1 231723Z 35010KT 29/02 A3001 RMK A01 T02940022  RH  018%=      5-min Rain = 0
KHO1 231724Z 32009KT 29/02 A3001 RMK A01 T02940024  RH  018%=      5-min Rain = 0
KHO1 231725Z 33010KT 30/03 A3001 RMK A01 T02960030  RH  018%=      5-min Rain = 0
KHO1 231726Z 33007KT 30/03 A3001 RMK A01 T02970028  RH  018%=      5-min Rain = 0
KHO1 231727Z 35012KT 30/03 A3001 RMK A01 T02990031  RH  018%=      5-min Rain = 0
KHO1 231728Z 33011KT 30/03 A3001 RMK A01 T02970031  RH  018%=      5-min Rain = 0
KHO1 231729Z 33009KT 30/03 A3001 RMK A01 T02970030  RH  018%=      5-min Rain = 0
KHO1 231730Z 33008KT 30/03 A3001 RMK A01 T02960031  RH  018%=      5-min Rain = 0
KHO1 231731Z 32009KT 30/03 A3001 RMK A01 T02960027  RH  018%=      5-min Rain = 0
KHO1 231732Z 30008KT 29/03 A3001 RMK A01 T02940026  RH  018%=      5-min Rain = 0
KHO1 231733Z 29009KT 29/02 A3001 RMK A01 T02930024  RH  018%=      5-min Rain = 0
KHO1 231734Z 29008KT 30/03 A3001 RMK A01 T02950027  RH  018%=      5-min Rain = 0
KHO1 231735Z 34010KT 30/03 A3001 RMK A01 T02980029  RH  018%=      5-min Rain = 0
KHO1 231736Z 35012KT 30/02 A3001 RMK A01 T03000022  RH  017%=      5-min Rain = 0
KHO1 231737Z 34012KT 30/02 A3001 RMK A01 T02980024  RH  017%=      5-min Rain = 0
KHO1 231738Z 34013KT 30/02 A3001 RMK A01 T02980022  RH  017%=      5-min Rain = 0
KHO1 231739Z 35011KT 30/02 A3001 RMK A01 T02990023  RH  017%=      5-min Rain = 0
KHO1 231740Z 33009KT 30/03 A3001 RMK A01 T03000025  RH  017%=      5-min Rain = 0
KHO1 231741Z 34006KT 30/03 A3001 RMK A01 T03020028  RH  018%=      5-min Rain = 0
KHO1 231742Z 34007KT 30/03 A3001 RMK A01 T03040027  RH  017%=      5-min Rain = 0
KHO1 231743Z 33010KT 30/02 A3001 RMK A01 T03040024  RH  017%=      5-min Rain = 0
KHO1 231744Z 33010KT 30/02 A3001 RMK A01 T03020024  RH  017%=      5-min Rain = 0
KHO1 231745Z 31010KT 30/03 A3001 RMK A01 T03010026  RH  017%=      5-min Rain = 0
KHO1 231746Z 30010KT 30/02 A3001 RMK A01 T03020020  RH  016%=      5-min Rain = 0
KHO1 231747Z 31010KT 30/02 A3001 RMK A01 T03010020  RH  017%=      5-min Rain = 0
KHO1 231748Z 30009KT 30/02 A3001 RMK A01 T02990019  RH  017%=      5-min Rain = 0
KHO1 231749Z 31008KT 30/03 A3001 RMK A01 T02980025  RH  018%=      5-min Rain = 0
KHO1 231750Z 32009KT 30/03 A3001 RMK A01 T02990031  RH  018%=      5-min Rain = 0
KHO1 231751Z 32011KT 30/02 A3001 RMK A01 T03000024  RH  017%=      5-min Rain = 0
KHO1 231752Z 34009KT 30/03 A3001 RMK A01 T02990025  RH  017%=      5-min Rain = 0
KHO1 231753Z 35009KT 30/03 A3001 RMK A01 T02990026  RH  018%=      5-min Rain = 0
KHO1 231754Z 00007KT 30/03 A3001 RMK A01 T02980030  RH  018%=      5-min Rain = 0
KHO1 231755Z 34009KT 30/03 A3001 RMK A01 T03000030  RH  018%=      5-min Rain = 0
KHO1 231756Z 33007KT 30/03 A3001 RMK A01 T03010034  RH  018%=      5-min Rain = 0
KHO1 231757Z 35008KT 30/03 A3001 RMK A01 T03030031  RH  018%=      5-min Rain = 0
KHO1 231758Z 35010KT 30/03 A30 RMK A01 T03040027  RH  017%=      5-min Rain = 0
KHO1 231759Z 33011G16KT 30/02 A30 RMK A01 T03020024  RH  017%=      5-min Rain = 0
KHO1 231800Z 34013KT 30/02 A30 RMK A01 T03040024  RH  017%=      5-min Rain = 0
KHO1 231801Z 34010KT 30/02 A30 RMK A01 T03020021  RH  017%=      5-min Rain = 0
KHO1 231802Z 34007KT 30/02 A3001 RMK A01 T03000023  RH  017%=      5-min Rain = 0
KHO1 231803Z 35009KT 30/03 A30 RMK A01 T02990028  RH  018%=      5-min Rain = 0
KHO1 231804Z 33011KT 30/03 A30 RMK A01 T02990032  RH  018%=      5-min Rain = 0
KHO1 231805Z 32013KT 30/04 A30 RMK A01 T03010035  RH  018%=      5-min Rain = 0
KHO1 231806Z 32013KT 30/04 A3001 RMK A01 T03020035  RH  018%=      5-min Rain = 0
KHO1 231807Z 34013G18KT 30/03 A30 RMK A01 T03010033  RH  018%=      5-min Rain = 0
KHO1 231808Z 31009KT 30/04 A3001 RMK A01 T02990035  RH  019%=      5-min Rain = 0
KHO1 231809Z 31008KT 30/04 A3001 RMK A01 T03000036  RH  019%=      5-min Rain = 0
KHO1 231810Z 30011KT 30/03 A3001 RMK A01 T03010034  RH  018%=      5-min Rain = 0
KHO1 231811Z 30012KT 30/03 A3001 RMK A01 T03020031  RH  018%=      5-min Rain = 0
KHO1 231812Z 31010KT 30/03 A3001 RMK A01 T03010033  RH  018%=      5-min Rain = 0
KHO1 231813Z 30008KT 30/04 A3001 RMK A01 T03000036  RH  019%=      5-min Rain = 0
KHO1 231814Z 30009G14KT 30/04 A3001 RMK A01 T02990042  RH  019%=      5-min Rain = 0
KHO1 231815Z 31011KT 30/04 A3001 RMK A01 T03020038  RH  019%=      5-min Rain = 0
KHO1 231816Z 31007KT 30/04 A3001 RMK A01 T03030035  RH  018%=      5-min Rain = 0
KHO1 231817Z 32005KT 30/04 A30 RMK A01 T03020038  RH  019%=      5-min Rain = 0
KHO1 231818Z 31006KT 30/04 A30 RMK A01 T03000037  RH  019%=      5-min Rain = 0
KHO1 231819Z 30010KT 30/04 A30 RMK A01 T03000036  RH  019%=      5-min Rain = 0
KHO1 231820Z 31009KT 30/04 A30 RMK A01 T03000038  RH  019%=      5-min Rain = 0
KHO1 231821Z 32010KT 30/04 A30 RMK A01 T03020037  RH  019%=      5-min Rain = 0
KHO1 231822Z 32011KT 30/04 A30 RMK A01 T03030035  RH  018%=      5-min Rain = 0
KHO1 231823Z 32010KT 30/03 A30 RMK A01 T03040032  RH  018%=      5-min Rain = 0
KHO1 231824Z 34011KT 31/03 A30 RMK A01 T03050028  RH  017%=      5-min Rain = 0
KHO1 231825Z 34011KT 31/03 A30 RMK A01 T03070026  RH  017%=      5-min Rain = 0
KHO1 231826Z 35010KT 31/02 A30 RMK A01 T03060023  RH  016%=      5-min Rain = 0
KHO1 231827Z 35005KT 31/03 A30 RMK A01 T03050027  RH  017%=      5-min Rain = 0
KHO1 231828Z 35005KT 31/03 A30 RMK A01 T03060027  RH  017%=      5-min Rain = 0
KHO1 231829Z 34005KT 30/03 A30 RMK A01 T03040030  RH  017%=      5-min Rain = 0
KHO1 231830Z 33008KT 30/03 A30 RMK A01 T03040029  RH  017%=      5-min Rain = 0
KHO1 231831Z 31011KT 30/02 A30 RMK A01 T03030024  RH  017%=      5-min Rain = 0
KHO1 231832Z 31008KT 31/02 A30 RMK A01 T03050018  RH  016%=      5-min Rain = 0
KHO1 231833Z 33006KT 31/02 A30 RMK A01 T03050017  RH  016%=      5-min Rain = 0
KHO1 231834Z 31010KT 30/02 A30 RMK A01 T03040020  RH  016%=      5-min Rain = 0
KHO1 231835Z 33012G19KT 30/02 A2999 RMK A01 T03040024  RH  017%=      5-min Rain = 0
KHO1 231836Z 33013KT 31/02 A30 RMK A01 T03050024  RH  017%=      5-min Rain = 0
KHO1 231837Z 34010KT 31/02 A2999 RMK A01 T03050024  RH  017%=      5-min Rain = 0
KHO1 231838Z 32009KT 31/02 A2999 RMK A01 T03060023  RH  016%=      5-min Rain = 0
KHO1 231839Z 34006KT 31/02 A2999 RMK A01 T03050024  RH  017%=      5-min Rain = 0
KHO1 231840Z 02004KT 31/03 A2999 RMK A01 T03060027  RH  017%=      5-min Rain = 0
KHO1 231841Z 01005KT 31/03 A2999 RMK A01 T03090025  RH  016%=      5-min Rain = 0
KHO1 231842Z 34007KT 31/03 A2999 RMK A01 T03110025  RH  016%=      5-min Rain = 0
KHO1 231843Z 34007KT 31/03 A2999 RMK A01 T03100025  RH  016%=      5-min Rain = 0
KHO1 231844Z 31014KT 31/01 A2999 RMK A01 T03090012  RH  015%=      5-min Rain = 0
KHO1 231845Z 32010KT 31/01 A2999 RMK A01 T03080012  RH  015%=      5-min Rain = 0
KHO1 231846Z 30009KT 31/01 A2999 RMK A01 T03070010  RH  015%=      5-min Rain = 0
KHO1 231847Z 31008KT 31/01 A2999 RMK A01 T03070007  RH  015%=      5-min Rain = 0
KHO1 231848Z 30006KT 31/00 A2999 RMK A01 T03060004  RH  014%=      5-min Rain = 0
KHO1 231849Z 30012KT 31/01 A2999 RMK A01 T03070007  RH  015%=      5-min Rain = 0
KHO1 231850Z 31010KT 31/00 A2999 RMK A01 T03100003  RH  014%=      5-min Rain = 0
KHO1 231851Z 31009KT 31/00 A2999 RMK A01 T03080004  RH  014%=      5-min Rain = 0
KHO1 231852Z 32010KT 31/00 A2999 RMK A01 T03080001  RH  014%=      5-min Rain = 0
KHO1 231853Z 31010KT 31/01 A2999 RMK A01 T03090005  RH  014%=      5-min Rain = 0
KHO1 231854Z 29012KT 31/01 A2999 RMK A01 T03110007  RH  014%=      5-min Rain = 0
KHO1 231855Z 29011KT 31/01 A2999 RMK A01 T03110007  RH  014%=      5-min Rain = 0
KHO1 231856Z 28014KT 31/01 A2999 RMK A01 T03110006  RH  014%=      5-min Rain = 0
KHO1 231857Z 29011KT 31/01 A2999 RMK A01 T03110006  RH  014%=      5-min Rain = 0
KHO1 231858Z 32008KT 31/01 A2999 RMK A01 T03100011  RH  015%=      5-min Rain = 0
KHO1 231859Z 33009KT 31/02 A2999 RMK A01 T03120021  RH  016%=      5-min Rain = 0
KHO1 231900Z 33009KT 31/02 A2999 RMK A01 T03130016  RH  015%=      5-min Rain = 0
KHO1 231901Z 29013KT 31/01 A2999 RMK A01 T03130014  RH  015%=      5-min Rain = 0
KHO1 231902Z 29014KT 31/01 A2999 RMK A01 T03140008  RH  014%=      5-min Rain = 0
KHO1 231903Z 30014KT 31/01 A2999 RMK A01 T03140008  RH  014%=      5-min Rain = 0
KHO1 231904Z 28006KT 31/01 A2999 RMK A01 T03110006  RH  014%=      5-min Rain = 0
KHO1 231905Z 29008G17KT 31/01 A2999 RMK A01 T03100007  RH  014%=      5-min Rain = 0
KHO1 231906Z 29014KT 31/01 A2999 RMK A01 T03110005  RH  014%=      5-min Rain = 0
KHO1 231907Z 30011KT 31/01 A2999 RMK A01 T03110005  RH  014%=      5-min Rain = 0
KHO1 231908Z 31008G13KT 31/00 A2999 RMK A01 T03100004  RH  014%=      5-min Rain = 0
KHO1 231909Z 30006KT 31/00 A2999 RMK A01 T03100003  RH  014%=      5-min Rain = 0
KHO1 231910Z 28004KT 31/00 A2998 RMK A01 T03090004  RH  014%=      5-min Rain = 0
KHO1 231911Z 32010KT 31/01 A2998 RMK A01 T03110010  RH  014%=      5-min Rain = 0
KHO1 231912Z 33010KT 31/01 A2998 RMK A01 T03120011  RH  015%=      5-min Rain = 0
KHO1 231913Z 35011KT 31/01 A2998 RMK A01 T03130013  RH  015%=      5-min Rain = 0
KHO1 231914Z 34008KT 31/01 A2998 RMK A01 T03140011  RH  014%=      5-min Rain = 0
KHO1 231915Z 33008KT 32/01 A2998 RMK A01 T03150012  RH  014%=      5-min Rain = 0
KHO1 231916Z 00005KT 31/01 A2998 RMK A01 T03130010  RH  014%=      5-min Rain = 0
KHO1 231917Z 33008KT 31/01 A2998 RMK A01 T03130012  RH  015%=      5-min Rain = 0
KHO1 231918Z 34006KT 31/01 A2998 RMK A01 T03120007  RH  014%=      5-min Rain = 0
KHO1 231919Z 35009KT 31/01 A2998 RMK A01 T03100009  RH  015%=      5-min Rain = 0
KHO1 231920Z 34006KT 31/01 A2998 RMK A01 T03110010  RH  015%=      5-min Rain = 0
KHO1 231921Z 30009KT 31/01 A2998 RMK A01 T03120009  RH  014%=      5-min Rain = 0
KHO1 231922Z 30009KT 31/01 A2998 RMK A01 T03120009  RH  014%=      5-min Rain = 0
KHO1 231923Z 30010KT 32/01 A2998 RMK A01 T03170006  RH  014%=      5-min Rain = 0
KHO1 231924Z 27010KT 32/M00 A2998 RMK A01 T03191001  RH  013%=      5-min Rain = 0
KHO1 231925Z 26009KT 32/M00 A2998 RMK A01 T03181003  RH  013%=      5-min Rain = 0
KHO1 231926Z 26009KT 32/M00 A2998 RMK A01 T03181001  RH  013%=      5-min Rain = 0
KHO1 231927Z 28010G16KT 32/00 A2998 RMK A01 T03190002  RH  013%=      5-min Rain = 0
KHO1 231928Z 29013KT 32/00 A2998 RMK A01 T03210000  RH  013%=      5-min Rain = 0
KHO1 231929Z 30010G15KT 32/00 A2998 RMK A01 T03190001  RH  013%=      5-min Rain = 0
KHO1 231930Z 30007KT 32/00 A2998 RMK A01 T03190002  RH  013%=      5-min Rain = 0
KHO1 231931Z 29008KT 32/M00 A2998 RMK A01 T03181001  RH  013%=      5-min Rain = 0
KHO1 231932Z 29006KT 32/M00 A2998 RMK A01 T03161003  RH  013%=      5-min Rain = 0
KHO1 231933Z 26004KT 31/M00 A2998 RMK A01 T03141002  RH  013%=      5-min Rain = 0
KHO1 231934Z 27004KT 31/M00 A2998 RMK A01 T03141002  RH  013%=      5-min Rain = 0
KHO1 231935Z 31005KT 32/00 A2998 RMK A01 T03150003  RH  014%=      5-min Rain = 0
KHO1 231936Z 32010KT 32/00 A2998 RMK A01 T03180000  RH  013%=      5-min Rain = 0
KHO1 231937Z 31013G18KT 32/00 A2997 RMK A01 T03200001  RH  013%=      5-min Rain = 0
KHO1 231938Z 32014KT 32/M01 A2997 RMK A01 T03191006  RH  012%=      5-min Rain = 0
KHO1 231939Z 31012KT 32/M01 A2997 RMK A01 T03151007  RH  013%=      5-min Rain = 0
KHO1 231940Z 33012KT 32/M00 A2997 RMK A01 T03151004  RH  013%=      5-min Rain = 0
KHO1 231941Z 34011KT 32/M00 A2997 RMK A01 T03191004  RH  013%=      5-min Rain = 0
KHO1 231942Z 33011KT 32/M00 A2997 RMK A01 T03211002  RH  013%=      5-min Rain = 0
KHO1 231943Z 34013KT 32/M01 A2997 RMK A01 T03211005  RH  012%=      5-min Rain = 0
KHO1 231944Z 34015KT 32/M01 A2997 RMK A01 T03191009  RH  012%=      5-min Rain = 0
KHO1 231945Z 34010KT 31/M01 A2997 RMK A01 T03131010  RH  012%=      5-min Rain = 0
KHO1 231946Z 32007KT 31/M01 A2997 RMK A01 T03131009  RH  012%=      5-min Rain = 0
KHO1 231947Z 30005KT 32/M01 A2997 RMK A01 T03151005  RH  013%=      5-min Rain = 0
KHO1 231948Z 29008G13KT 32/M01 A2997 RMK A01 T03161008  RH  012%=      5-min Rain = 0
KHO1 231949Z 29010KT 32/M02 A2997 RMK A01 T03181016  RH  012%=      5-min Rain = 0
KHO1 231950Z 29012G18KT 32/M01 A2997 RMK A01 T03211011  RH  012%=      5-min Rain = 0
KHO1 231951Z 26012KT 32/M02 A2998 RMK A01 T03241016  RH  011%=      5-min Rain = 0
KHO1 231952Z 25010KT 32/M02 A2998 RMK A01 T03231019  RH  011%=      5-min Rain = 0
KHO1 231953Z 24008KT 32/M02 A2997 RMK A01 T03211019  RH  011%=      5-min Rain = 0
KHO1 231954Z 25008KT 32/M02 A2997 RMK A01 T03191017  RH  011%=      5-min Rain = 0
KHO1 231955Z 27007KT 32/M01 A2997 RMK A01 T03211014  RH  012%=      5-min Rain = 0
KHO1 231956Z 31008KT 32/M01 A2997 RMK A01 T03241014  RH  011%=      5-min Rain = 0
KHO1 231957Z 33004G9KT 32/M01 A2997 RMK A01 T03231012  RH  012%=      5-min Rain = 0
KHO1 231958Z 32006KT 32/M02 A2997 RMK A01 T03211017  RH  011%=      5-min Rain = 0
KHO1 231959Z 31005KT 32/M02 A2997 RMK A01 T03191015  RH  012%=      5-min Rain = 0
KHO1 232000Z 28007KT 32/M01 A2997 RMK A01 T03191014  RH  012%=      5-min Rain = 0
KHO1 232001Z 25008KT 32/M03 A2997 RMK A01 T03221025  RH  011%=      5-min Rain = 0
KHO1 232002Z 26009KT 32/M03 A2997 RMK A01 T03241025  RH  010%=      5-min Rain = 0
KHO1 232003Z 30010KT 32/M02 A2997 RMK A01 T03241023  RH  011%=      5-min Rain = 0
KHO1 232004Z 32008KT 32/M02 A2997 RMK A01 T03231021  RH  011%=      5-min Rain = 0
KHO1 232005Z 32007KT 33/M02 A2997 RMK A01 T03251018  RH  011%=      5-min Rain = 0
KHO1 232006Z 29012KT 33/M02 A2997 RMK A01 T03291022  RH  010%=      5-min Rain = 0
KHO1 232007Z 29013G18KT 33/M03 A2997 RMK A01 T03271027  RH  010%=      5-min Rain = 0
KHO1 232008Z 31015G22KT 33/M03 A2996 RMK A01 T03271025  RH  010%=      5-min Rain = 0
KHO1 232009Z 29015KT 33/M03 A2996 RMK A01 T03291029  RH  010%=      5-min Rain = 0
KHO1 232010Z 28015G20KT 33/M03 A2997 RMK A01 T03271031  RH  010%=      5-min Rain = 0
KHO1 232011Z 28015KT 32/M03 A2997 RMK A01 T03241028  RH  010%=      5-min Rain = 0
KHO1 232012Z 29014KT 32/M03 A2997 RMK A01 T03241027  RH  010%=      5-min Rain = 0
KHO1 232013Z 29016KT 32/M03 A2997 RMK A01 T03241029  RH  010%=      5-min Rain = 0
KHO1 232014Z 28014G20KT 32/M03 A2997 RMK A01 T03241027  RH  010%=      5-min Rain = 0
KHO1 232015Z 28014G19KT 33/M03 A2997 RMK A01 T03251029  RH  010%=      5-min Rain = 0
KHO1 232016Z 28012G22KT 32/M03 A2997 RMK A01 T03241030  RH  010%=      5-min Rain = 0
KHO1 232017Z 28016G22KT 32/M03 A2997 RMK A01 T03221031  RH  010%=      5-min Rain = 0
KHO1 232018Z 28014KT 32/M03 A2997 RMK A01 T03221032  RH  010%=      5-min Rain = 0
KHO1 232019Z 28011KT 32/M03 A2997 RMK A01 T03211033  RH  010%=      5-min Rain = 0
KHO1 232020Z 30013KT 32/M03 A2997 RMK A01 T03241033  RH  010%=      5-min Rain = 0
KHO1 232021Z 30011KT 32/M04 A2996 RMK A01 T03241037  RH  010%=      5-min Rain = 0
KHO1 232022Z 28012KT 32/M03 A2996 RMK A01 T03231032  RH  010%=      5-min Rain = 0
KHO1 232023Z 29014KT 33/M03 A2996 RMK A01 T03251033  RH  010%=      5-min Rain = 0
KHO1 232024Z 29009KT 32/M03 A2996 RMK A01 T03241034  RH  010%=      5-min Rain = 0
KHO1 232025Z 31008G14KT 33/M03 A2996 RMK A01 T03251034  RH  010%=      5-min Rain = 0
KHO1 232026Z 31007KT 32/M04 A2996 RMK A01 T03241036  RH  010%=      5-min Rain = 0
KHO1 232027Z 31011KT 32/M04 A2996 RMK A01 T03241042  RH  009%=      5-min Rain = 0
KHO1 232028Z 29015KT 32/M04 A2996 RMK A01 T03231042  RH  009%=      5-min Rain = 0
KHO1 232029Z 29013KT 32/M04 A2996 RMK A01 T03231044  RH  009%=      5-min Rain = 0
KHO1 232030Z 29014G19KT 32/M04 A2996 RMK A01 T03231042  RH  009%=      5-min Rain = 0
KHO1 232031Z 29016KT 33/M04 A2996 RMK A01 T03281038  RH  009%=      5-min Rain = 0
KHO1 232032Z 27016KT 33/M04 A2996 RMK A01 T03281041  RH  009%=      5-min Rain = 0
KHO1 232033Z 27016KT 33/M04 A2996 RMK A01 T03261042  RH  009%=      5-min Rain = 0
KHO1 232034Z 27014KT 33/M04 A2996 RMK A01 T03261039  RH  009%=      5-min Rain = 0
KHO1 232035Z 26015KT 33/M04 A2996 RMK A01 T03271036  RH  009%=      5-min Rain = 0
KHO1 232036Z 25011KT 33/M04 A2996 RMK A01 T03251040  RH  009%=      5-min Rain = 0
KHO1 232037Z 27010KT 32/M04 A2996 RMK A01 T03241037  RH  010%=      5-min Rain = 0
KHO1 232038Z 27010KT 32/M04 A2996 RMK A01 T03241037  RH  010%=      5-min Rain = 0
KHO1 232039Z 26007KT 32/M04 A2996 RMK A01 T03211037  RH  010%=      5-min Rain = 0
KHO1 232040Z 26009KT 32/M04 A2996 RMK A01 T03221035  RH  010%=      5-min Rain = 0
KHO1 232041Z 25011KT 33/M03 A2996 RMK A01 T03251031  RH  010%=      5-min Rain = 0
KHO1 232042Z 27011KT 33/M04 A2996 RMK A01 T03251036  RH  010%=      5-min Rain = 0
KHO1 232043Z 28016G22KT 33/M04 A2996 RMK A01 T03251035  RH  010%=      5-min Rain = 0
KHO1 232044Z 28016KT 33/M03 A2996 RMK A01 T03271034  RH  010%=      5-min Rain = 0
KHO1 232045Z 27013KT 33/M03 A2996 RMK A01 T03281033  RH  010%=      5-min Rain = 0
KHO1 232046Z 26011G18KT 33/M03 A2996 RMK A01 T03311031  RH  010%=      5-min Rain = 0
KHO1 232047Z 28012G18KT 33/M03 A2996 RMK A01 T03291033  RH  010%=      5-min Rain = 0
KHO1 232048Z 28015KT 33/M03 A2996 RMK A01 T03291034  RH  009%=      5-min Rain = 0
KHO1 232049Z 26013KT 33/M03 A2996 RMK A01 T03281032  RH  010%=      5-min Rain = 0
KHO1 232050Z 28016G21KT 33/M03 A2996 RMK A01 T03281032  RH  010%=      5-min Rain = 0
KHO1 232051Z 28017KT 33/M03 A2996 RMK A01 T03281034  RH  010%=      5-min Rain = 0
KHO1 232052Z 27016KT 33/M03 A2996 RMK A01 T03271032  RH  010%=      5-min Rain = 0
KHO1 232053Z 26013KT 33/M03 A2996 RMK A01 T03261033  RH  010%=      5-min Rain = 0
KHO1 232054Z 26014KT 33/M03 A2996 RMK A01 T03251031  RH  010%=      5-min Rain = 0
KHO1 232055Z 26013KT 33/M03 A2996 RMK A01 T03261032  RH  010%=      5-min Rain = 0
KHO1 232056Z 25013KT 33/M03 A2996 RMK A01 T03261029  RH  010%=      5-min Rain = 0
KHO1 232057Z 27013G18KT 33/M03 A2996 RMK A01 T03281029  RH  010%=      5-min Rain = 0
KHO1 232058Z 27014KT 33/M03 A2996 RMK A01 T03291028  RH  010%=      5-min Rain = 0
KHO1 232059Z 27013G18KT 33/M03 A2996 RMK A01 T03261028  RH  010%=      5-min Rain = 0
KHO1 232100Z 27011KT 32/M03 A2996 RMK A01 T03241029  RH  010%=      5-min Rain = 0
KHO1 232101Z 28012KT 33/M03 A2996 RMK A01 T03251028  RH  010%=      5-min Rain = 0
KHO1 232102Z 27006G11KT 32/M03 A2995 RMK A01 T03221029  RH  010%=      5-min Rain = 0
KHO1 232103Z 28005KT 32/M03 A2995 RMK A01 T03221028  RH  010%=      5-min Rain = 0
KHO1 232104Z 27010G17KT 33/M03 A2995 RMK A01 T03251025  RH  010%=      5-min Rain = 0
KHO1 232105Z 28012G17KT 33/M03 A2995 RMK A01 T03251026  RH  010%=      5-min Rain = 0
KHO1 232106Z 28007KT 32/M02 A2995 RMK A01 T03241023  RH  011%=      5-min Rain = 0
KHO1 232107Z 27007KT 32/M03 A2995 RMK A01 T03241025  RH  010%=      5-min Rain = 0
KHO1 232108Z 26006KT 32/M02 A2995 RMK A01 T03231023  RH  011%=      5-min Rain = 0
KHO1 232109Z 27009KT 33/M02 A2995 RMK A01 T03261021  RH  011%=      5-min Rain = 0
KHO1 232110Z 27009KT 33/M03 A2995 RMK A01 T03261028  RH  010%=      5-min Rain = 0
KHO1 232111Z 24006KT 32/M02 A2995 RMK A01 T03241024  RH  011%=      5-min Rain = 0
KHO1 232112Z 26011KT 33/M02 A2995 RMK A01 T03271020  RH  011%=      5-min Rain = 0
KHO1 232113Z 28014KT 33/M02 A2995 RMK A01 T03291021  RH  010%=      5-min Rain = 0
KHO1 232114Z 25013KT 33/M02 A2995 RMK A01 T03301020  RH  011%=      5-min Rain = 0
KHO1 232115Z 24013KT 33/M02 A2995 RMK A01 T03281021  RH  011%=      5-min Rain = 0
KHO1 232116Z 26013KT 33/M02 A2995 RMK A01 T03271019  RH  011%=      5-min Rain = 0
KHO1 232117Z 25012KT 33/M02 A2995 RMK A01 T03311017  RH  011%=      5-min Rain = 0
KHO1 232118Z 25008KT 33/M02 A2995 RMK A01 T03301020  RH  011%=      5-min Rain = 0
KHO1 232119Z 27008KT 33/M02 A2995 RMK A01 T03291019  RH  011%=      5-min Rain = 0
KHO1 232120Z 26014G19KT 33/M02 A2995 RMK A01 T03301021  RH  010%=      5-min Rain = 0
KHO1 232121Z 23014G21KT 33/M02 A2995 RMK A01 T03271019  RH  011%=      5-min Rain = 0
KHO1 232122Z 23013KT 33/M02 A2995 RMK A01 T03251021  RH  011%=      5-min Rain = 0
KHO1 232123Z 23008KT 32/M02 A2995 RMK A01 T03211023  RH  011%=      5-min Rain = 0
KHO1 232124Z 23009KT 32/M02 A2995 RMK A01 T03221018  RH  011%=      5-min Rain = 0
KHO1 232125Z 24009KT 32/M02 A2995 RMK A01 T03241020  RH  011%=      5-min Rain = 0
KHO1 232126Z 22008KT 32/M02 A2994 RMK A01 T03241021  RH  011%=      5-min Rain = 0
KHO1 232127Z 24008KT 32/M02 A2995 RMK A01 T03231022  RH  011%=      5-min Rain = 0
KHO1 232128Z 28014KT 32/M02 A2995 RMK A01 T03241022  RH  011%=      5-min Rain = 0
KHO1 232129Z 29012KT 33/M02 A2995 RMK A01 T03251024  RH  010%=      5-min Rain = 0
KHO1 232130Z 28010KT 32/M02 A2995 RMK A01 T03241022  RH  011%=      5-min Rain = 0
KHO1 232131Z 30008G15KT 33/M02 A2994 RMK A01 T03261019  RH  011%=      5-min Rain = 0
KHO1 232132Z 30013G18KT 33/M02 A2994 RMK A01 T03281020  RH  011%=      5-min Rain = 0
KHO1 232133Z 28011KT 33/M02 A2994 RMK A01 T03261022  RH  011%=      5-min Rain = 0
KHO1 232134Z 31010KT 33/M02 A2994 RMK A01 T03291019  RH  011%=      5-min Rain = 0
KHO1 232135Z 31011KT 33/M02 A2994 RMK A01 T03301017  RH  011%=      5-min Rain = 0
KHO1 232136Z 31012KT 33/M02 A2994 RMK A01 T03311020  RH  010%=      5-min Rain = 0
KHO1 232137Z 28012KT 33/M02 A2994 RMK A01 T03311019  RH  010%=      5-min Rain = 0
KHO1 232138Z 27012KT 33/M02 A2994 RMK A01 T03311022  RH  010%=      5-min Rain = 0
KHO1 232139Z 27008KT 33/M02 A2994 RMK A01 T03291023  RH  010%=      5-min Rain = 0
KHO1 232140Z 28009KT 33/M02 A2994 RMK A01 T03271023  RH  010%=      5-min Rain = 0
KHO1 232141Z 30013G18KT 33/M02 A2994 RMK A01 T03281022  RH  010%=      5-min Rain = 0
KHO1 232142Z 30015KT 33/M02 A2994 RMK A01 T03271023  RH  010%=      5-min Rain = 0
KHO1 232143Z 29014KT 33/M02 A2994 RMK A01 T03261023  RH  010%=      5-min Rain = 0
KHO1 232144Z 30015KT 33/M03 A2994 RMK A01 T03281026  RH  010%=      5-min Rain = 0
KHO1 232145Z 28011KT 33/M03 A2994 RMK A01 T03271028  RH  010%=      5-min Rain = 0
KHO1 232146Z 27012KT 32/M03 A2994 RMK A01 T03241028  RH  010%=      5-min Rain = 0
KHO1 232147Z 27010KT 33/M02 A2994 RMK A01 T03251024  RH  011%=      5-min Rain = 0
KHO1 232148Z 28012KT 33/M02 A2994 RMK A01 T03301021  RH  010%=      5-min Rain = 0
KHO1 232149Z 28012KT 33/M03 A2994 RMK A01 T03311025  RH  010%=      5-min Rain = 0
KHO1 232150Z 29018KT 33/M03 A2994 RMK A01 T03291025  RH  010%=      5-min Rain = 0
KHO1 232151Z 30016KT 33/M02 A2993 RMK A01 T03271021  RH  011%=      5-min Rain = 0
KHO1 232152Z 31016KT 33/M02 A2993 RMK A01 T03271021  RH  011%=      5-min Rain = 0
KHO1 232153Z 32015KT 33/M02 A2993 RMK A01 T03261023  RH  011%=      5-min Rain = 0
KHO1 232154Z 32012KT 32/M02 A2993 RMK A01 T03241022  RH  011%=      5-min Rain = 0
KHO1 232155Z 32012KT 33/M02 A2993 RMK A01 T03251020  RH  011%=      5-min Rain = 0
KHO1 232156Z 31013KT 32/M02 A2993 RMK A01 T03241021  RH  011%=      5-min Rain = 0
KHO1 232157Z 32010KT 33/M02 A2993 RMK A01 T03251019  RH  011%=      5-min Rain = 0
KHO1 232158Z 31009KT 33/M02 A2993 RMK A01 T03281018  RH  011%=      5-min Rain = 0
KHO1 232159Z 31011KT 33/M02 A2993 RMK A01 T03291018  RH  011%=      5-min Rain = 0
KHO1 232200Z 31008KT 33/M02 A2993 RMK A01 T03271020  RH  011%=      5-min Rain = 0
KHO1 232201Z 30011KT 33/M02 A2993 RMK A01 T03281019  RH  011%=      5-min Rain = 0
KHO1 232202Z 31008KT 33/M02 A2993 RMK A01 T03281019  RH  011%=      5-min Rain = 0
KHO1 232203Z 28006KT 33/M02 A2993 RMK A01 T03281022  RH  010%=      5-min Rain = 0
KHO1 232204Z 29005KT 33/M03 A2993 RMK A01 T03271027  RH  010%=      5-min Rain = 0
KHO1 232205Z 31006KT 33/M02 A2993 RMK A01 T03291021  RH  011%=      5-min Rain = 0
KHO1 232206Z 27006G11KT 33/M02 A2993 RMK A01 T03311016  RH  011%=      5-min Rain = 0
KHO1 232207Z 29011KT 33/M02 A2993 RMK A01 T03331022  RH  010%=      5-min Rain = 0
KHO1 232208Z 28009KT 33/M02 A2993 RMK A01 T03311023  RH  010%=      5-min Rain = 0
KHO1 232209Z 26011KT 33/M03 A2993 RMK A01 T03311028  RH  010%=      5-min Rain = 0
KHO1 232210Z 28007KT 33/M03 A2993 RMK A01 T03291032  RH  010%=      5-min Rain = 0
KHO1 232211Z 31010G16KT 33/M03 A2993 RMK A01 T03281026  RH  010%=      5-min Rain = 0
KHO1 232212Z 29011KT 33/M02 A2993 RMK A01 T03261019  RH  011%=      5-min Rain = 0
KHO1 232213Z 28014KT 33/M03 A2993 RMK A01 T03281028  RH  010%=      5-min Rain = 0
KHO1 232214Z 28011KT 33/M03 A2993 RMK A01 T03291026  RH  010%=      5-min Rain = 0
KHO1 232215Z 29012KT 33/M03 A2993 RMK A01 T03291026  RH  010%=      5-min Rain = 0
KHO1 232216Z 30009KT 33/M02 A2993 RMK A01 T03281024  RH  010%=      5-min Rain = 0
KHO1 232217Z 28009G16KT 33/M02 A2993 RMK A01 T03291023  RH  010%=      5-min Rain = 0
KHO1 232218Z 29013KT 33/M03 A2993 RMK A01 T03301025  RH  010%=      5-min Rain = 0
KHO1 232219Z 28013KT 33/M03 A2993 RMK A01 T03291027  RH  010%=      5-min Rain = 0
KHO1 232220Z 27013KT 33/M03 A2993 RMK A01 T03301028  RH  010%=      5-min Rain = 0
KHO1 232221Z 28014KT 33/M03 A2993 RMK A01 T03301029  RH  010%=      5-min Rain = 0
KHO1 232222Z 28012KT 33/M03 A2993 RMK A01 T03291031  RH  010%=      5-min Rain = 0
KHO1 232223Z 27006KT 33/M03 A2993 RMK A01 T03271030  RH  010%=      5-min Rain = 0
KHO1 232224Z 29008KT 33/M03 A2993 RMK A01 T03261027  RH  010%=      5-min Rain = 0
KHO1 232225Z 30011KT 33/M02 A2992 RMK A01 T03281022  RH  011%=      5-min Rain = 0
KHO1 232226Z 30012KT 33/M02 A2992 RMK A01 T03281022  RH  010%=      5-min Rain = 0
KHO1 232227Z 30014KT 33/M02 A2992 RMK A01 T03281024  RH  010%=      5-min Rain = 0
KHO1 232228Z 29011KT 33/M03 A2993 RMK A01 T03271026  RH  010%=      5-min Rain = 0
KHO1 232229Z 29009KT 33/M03 A2993 RMK A01 T03251027  RH  010%=      5-min Rain = 0
KHO1 232230Z 31006KT 33/M03 A2993 RMK A01 T03251026  RH  010%=      5-min Rain = 0
KHO1 232231Z 26004KT 33/M02 A2992 RMK A01 T03251024  RH  010%=      5-min Rain = 0
KHO1 232232Z 28008G13KT 33/M03 A2992 RMK A01 T03261027  RH  010%=      5-min Rain = 0
KHO1 232233Z 28007G12KT 33/M03 A2992 RMK A01 T03261026  RH  010%=      5-min Rain = 0
KHO1 232234Z 29009KT 33/M03 A2992 RMK A01 T03261026  RH  010%=      5-min Rain = 0
KHO1 232235Z 31010KT 33/M02 A2992 RMK A01 T03261024  RH  010%=      5-min Rain = 0
KHO1 232236Z 30011KT 33/M02 A2992 RMK A01 T03271020  RH  011%=      5-min Rain = 0
KHO1 232237Z 31011KT 33/M02 A2992 RMK A01 T03291023  RH  010%=      5-min Rain = 0
KHO1 232238Z 31010KT 33/M03 A2992 RMK A01 T03291025  RH  010%=      5-min Rain = 0
KHO1 232239Z 31010KT 33/M02 A2992 RMK A01 T03281023  RH  010%=      5-min Rain = 0
KHO1 232240Z 29011KT 33/M02 A2992 RMK A01 T03291019  RH  011%=      5-min Rain = 0
KHO1 232241Z 29011KT 33/M02 A2992 RMK A01 T03321024  RH  010%=      5-min Rain = 0
KHO1 232242Z 30013KT 33/M03 A2992 RMK A01 T03321027  RH  010%=      5-min Rain = 0
KHO1 232243Z 30011KT 33/M03 A2992 RMK A01 T03281027  RH  010%=      5-min Rain = 0
KHO1 232244Z 28009KT 33/M03 A2992 RMK A01 T03281027  RH  010%=      5-min Rain = 0
KHO1 232245Z 30010KT 33/M03 A2992 RMK A01 T03281026  RH  010%=      5-min Rain = 0
KHO1 232246Z 32007KT 33/M02 A2991 RMK A01 T03271024  RH  010%=      5-min Rain = 0
KHO1 232247Z 31010KT 33/M02 A2991 RMK A01 T03271023  RH  010%=      5-min Rain = 0
KHO1 232248Z 30010KT 33/M02 A2992 RMK A01 T03281020  RH  011%=      5-min Rain = 0
KHO1 232249Z 29010KT 33/M02 A2992 RMK A01 T03291019  RH  011%=      5-min Rain = 0
KHO1 232250Z 28010KT 33/M02 A2992 RMK A01 T03301023  RH  010%=      5-min Rain = 0
KHO1 232251Z 30010KT 33/M02 A2991 RMK A01 T03291023  RH  010%=      5-min Rain = 0
KHO1 232252Z 30012KT 33/M02 A2991 RMK A01 T03291020  RH  011%=      5-min Rain = 0
KHO1 232253Z 31011KT 33/M02 A2991 RMK A01 T03291020  RH  011%=      5-min Rain = 0
KHO1 232254Z 31011KT 33/M02 A2991 RMK A01 T03281021  RH  011%=      5-min Rain = 0
KHO1 232255Z 28011KT 33/M02 A2992 RMK A01 T03271024  RH  010%=      5-min Rain = 0
KHO1 232256Z 29009KT 33/M03 A2992 RMK A01 T03261025  RH  010%=      5-min Rain = 0
KHO1 232257Z 26010KT 33/M02 A2992 RMK A01 T03271022  RH  011%=      5-min Rain = 0
KHO1 232258Z 26009KT 33/M02 A2992 RMK A01 T03271023  RH  010%=      5-min Rain = 0
KHO1 232259Z 26008KT 33/M02 A2992 RMK A01 T03291021  RH  010%=      5-min Rain = 0
KHO1 232300Z 26006KT 33/M03 A2992 RMK A01 T03291025  RH  010%=      5-min Rain = 0
KHO1 232301Z 28006KT 33/M02 A2991 RMK A01 T03281023  RH  010%=      5-min Rain = 0
KHO1 232302Z 28004KT 33/M03 A2991 RMK A01 T03281025  RH  010%=      5-min Rain = 0
KHO1 232303Z 33003KT 33/M02 A2991 RMK A01 T03281020  RH  011%=      5-min Rain = 0
KHO1 232304Z 34003KT 33/M02 A2991 RMK A01 T03291020  RH  011%=      5-min Rain = 0
KHO1 232305Z 26003KT 33/M02 A2991 RMK A01 T03301019  RH  011%=      5-min Rain = 0
KHO1 232306Z 31005KT 33/M02 A2991 RMK A01 T03311018  RH  011%=      5-min Rain = 0
KHO1 232307Z 30004KT 33/M02 A2991 RMK A01 T03311022  RH  010%=      5-min Rain = 0
KHO1 232308Z 29003KT 33/M02 A2991 RMK A01 T03301022  RH  010%=      5-min Rain = 0
KHO1 232309Z 29003KT 33/M02 A2991 RMK A01 T03301024  RH  010%=      5-min Rain = 0
KHO1 232310Z 29001KT 33/M02 A2991 RMK A01 T03301024  RH  010%=      5-min Rain = 0
KHO1 232311Z 25003KT 33/M02 A2991 RMK A01 T03281023  RH  010%=      5-min Rain = 0
KHO1 232312Z 25004KT 33/M03 A2991 RMK A01 T03271027  RH  010%=      5-min Rain = 0
KHO1 232313Z 27004KT 33/M02 A2991 RMK A01 T03261024  RH  010%=      5-min Rain = 0
KHO1 232314Z 29004KT 33/M02 A2991 RMK A01 T03281023  RH  010%=      5-min Rain = 0
KHO1 232315Z 29009KT 33/M03 A2991 RMK A01 T03291026  RH  010%=      5-min Rain = 0
KHO1 232316Z 29008KT 33/M03 A2991 RMK A01 T03281025  RH  010%=      5-min Rain = 0
KHO1 232317Z 30007KT 33/M02 A2991 RMK A01 T03301020  RH  010%=      5-min Rain = 0
KHO1 232318Z 30010KT 33/M02 A2991 RMK A01 T03311021  RH  010%=      5-min Rain = 0
KHO1 232319Z 28011KT 33/M03 A2991 RMK A01 T03311026  RH  010%=      5-min Rain = 0
KHO1 232320Z 29008KT 33/M03 A2991 RMK A01 T03281028  RH  010%=      5-min Rain = 0
KHO1 232321Z 29010KT 33/M03 A2991 RMK A01 T03271027  RH  010%=      5-min Rain = 0
KHO1 232322Z 26011KT 33/M03 A2991 RMK A01 T03281026  RH  010%=      5-min Rain = 0
KHO1 232323Z 24009KT 33/M03 A2991 RMK A01 T03271028  RH  010%=      5-min Rain = 0
KHO1 232324Z 24008KT 33/M03 A2991 RMK A01 T03261027  RH  010%=      5-min Rain = 0
KHO1 232325Z 25008KT 33/M03 A2991 RMK A01 T03261028  RH  010%=      5-min Rain = 0
KHO1 232326Z 26008KT 33/M03 A299 RMK A01 T03261028  RH  010%=      5-min Rain = 0
KHO1 232327Z 28008KT 33/M02 A299 RMK A01 T03281022  RH  010%=      5-min Rain = 0
KHO1 232328Z 29007KT 33/M02 A299 RMK A01 T03301022  RH  010%=      5-min Rain = 0
KHO1 232329Z 30008KT 33/M02 A299 RMK A01 T03301020  RH  010%=      5-min Rain = 0
KHO1 232330Z 27010KT 33/M02 A299 RMK A01 T03301024  RH  010%=      5-min Rain = 0
KHO1 232331Z 28009KT 33/M03 A299 RMK A01 T03291026  RH  010%=      5-min Rain = 0
KHO1 232332Z 28007KT 33/M03 A299 RMK A01 T03281026  RH  010%=      5-min Rain = 0
KHO1 232333Z 28007KT 33/M03 A299 RMK A01 T03271028  RH  010%=      5-min Rain = 0
KHO1 232334Z 28007KT 33/M03 A299 RMK A01 T03251028  RH  010%=      5-min Rain = 0
KHO1 232335Z 28009KT 33/M02 A299 RMK A01 T03261024  RH  010%=      5-min Rain = 0
KHO1 232336Z 29008KT 33/M02 A299 RMK A01 T03291024  RH  010%=      5-min Rain = 0
KHO1 232337Z 27010G16KT 33/M02 A299 RMK A01 T03301024  RH  010%=      5-min Rain = 0
KHO1 232338Z 25014KT 33/M03 A299 RMK A01 T03301029  RH  010%=      5-min Rain = 0
KHO1 232339Z 25011KT 33/M03 A299 RMK A01 T03271030  RH  010%=      5-min Rain = 0
KHO1 232340Z 28006KT 32/M03 A299 RMK A01 T03241031  RH  010%=      5-min Rain = 0
KHO1 232341Z 23004KT 32/M03 A299 RMK A01 T03241031  RH  010%=      5-min Rain = 0
KHO1 232342Z 22002KT 32/M03 A299 RMK A01 T03241033  RH  010%=      5-min Rain = 0
KHO1 232343Z 32001KT 32/M03 A299 RMK A01 T03231033  RH  010%=      5-min Rain = 0
KHO1 232344Z 30002KT 33/M03 A299 RMK A01 T03251030  RH  010%=      5-min Rain = 0
KHO1 232345Z 21004KT 33/M03 A299 RMK A01 T03251030  RH  010%=      5-min Rain = 0
KHO1 232346Z 21005KT 33/M03 A299 RMK A01 T03261027  RH  010%=      5-min Rain = 0
KHO1 232347Z 21009KT 33/M03 A299 RMK A01 T03271028  RH  010%=      5-min Rain = 0
KHO1 232348Z 21009KT 33/M03 A299 RMK A01 T03261032  RH  010%=      5-min Rain = 0
KHO1 232349Z 22007KT 33/M03 A299 RMK A01 T03251031  RH  010%=      5-min Rain = 0
KHO1 232350Z 24007KT 33/M03 A299 RMK A01 T03251028  RH  010%=      5-min Rain = 0
KHO1 232351Z 31007KT 33/M03 A299 RMK A01 T03271027  RH  010%=      5-min Rain = 0
KHO1 232352Z 31008KT 33/M03 A299 RMK A01 T03281028  RH  010%=      5-min Rain = 0
KHO1 232353Z 32005KT 33/M03 A299 RMK A01 T03281029  RH  010%=      5-min Rain = 0
KHO1 232354Z 33006KT 33/M03 A299 RMK A01 T03271031  RH  010%=      5-min Rain = 0
KHO1 232355Z 31001KT 33/M03 A299 RMK A01 T03271030  RH  010%=      5-min Rain = 0
KHO1 232356Z 20004KT 33/M03 A299 RMK A01 T03261032  RH  010%=      5-min Rain = 0
KHO1 232357Z 20006KT 33/M03 A299 RMK A01 T03251032  RH  010%=      5-min Rain = 0
KHO1 232358Z 20007KT 32/M03 A299 RMK A01 T03241031  RH  010%=      5-min Rain = 0
KHO1 232359Z 21007KT 32/M03 A299 RMK A01 T03231032  RH  010%=      5-min Rain = 0
KHO1 240000Z 22005KT 32/M03 A299 RMK A01 T03231030  RH  010%=      5-min Rain = 0
KHO1 240001Z 25009KT 33/M03 A299 RMK A01 T03251030  RH  010%=      5-min Rain = 0
KHO1 240002Z 25010KT 33/M03 A299 RMK A01 T03261030  RH  010%=      5-min Rain = 0
KHO1 240003Z 25010KT 33/M03 A299 RMK A01 T03261028  RH  010%=      5-min Rain = 0
KHO1 240004Z 27012KT 33/M03 A299 RMK A01 T03271031  RH  010%=      5-min Rain = 0
KHO1 240005Z 26011KT 33/M03 A299 RMK A01 T03251031  RH  010%=      5-min Rain = 0
KHO1 240006Z 24011KT 33/M03 A299 RMK A01 T03251029  RH  010%=      5-min Rain = 0
KHO1 240007Z 25009KT 32/M03 A299 RMK A01 T03241031  RH  010%=      5-min Rain = 0
KHO1 240008Z 26007KT 33/M03 A299 RMK A01 T03251029  RH  010%=      5-min Rain = 0
KHO1 240009Z 28006KT 33/M03 A299 RMK A01 T03261030  RH  010%=      5-min Rain = 0
KHO1 240010Z 28008KT 33/M03 A299 RMK A01 T03271029  RH  010%=      5-min Rain = 0
KHO1 240011Z 26009KT 33/M03 A299 RMK A01 T03271029  RH  010%=      5-min Rain = 0
KHO1 240012Z 28008KT 33/M03 A299 RMK A01 T03271027  RH  010%=      5-min Rain = 0
KHO1 240013Z 30008KT 33/M03 A299 RMK A01 T03271027  RH  010%=      5-min Rain = 0
KHO1 240014Z 29010KT 33/M03 A299 RMK A01 T03261029  RH  010%=      5-min Rain = 0
KHO1 240015Z 29010G16KT 33/M03 A299 RMK A01 T03251028  RH  010%=      5-min Rain = 0
KHO1 240016Z 29011KT 32/M04 A299 RMK A01 T03241035  RH  010%=      5-min Rain = 0
KHO1 240017Z 28012KT 32/M04 A299 RMK A01 T03241036  RH  010%=      5-min Rain = 0
KHO1 240018Z 27011KT 32/M03 A299 RMK A01 T03241034  RH  010%=      5-min Rain = 0
KHO1 240019Z 26012KT 32/M04 A299 RMK A01 T03241035  RH  010%=      5-min Rain = 0
KHO1 240020Z 26011KT 32/M03 A299 RMK A01 T03241034  RH  010%=      5-min Rain = 0
KHO1 240021Z 26011KT 32/M04 A299 RMK A01 T03241036  RH  010%=      5-min Rain = 0
KHO1 240022Z 28009KT 32/M04 A299 RMK A01 T03241036  RH  010%=      5-min Rain = 0
KHO1 240023Z 27008KT 32/M04 A299 RMK A01 T03241036  RH  010%=      5-min Rain = 0
KHO1 240024Z 28008KT 32/M04 A299 RMK A01 T03241037  RH  010%=      5-min Rain = 0
KHO1 240025Z 29005KT 32/M04 A299 RMK A01 T03241036  RH  010%=      5-min Rain = 0
KHO1 240026Z 29005KT 32/M03 A299 RMK A01 T03241034  RH  010%=      5-min Rain = 0
KHO1 240027Z 30005KT 32/M03 A299 RMK A01 T03241034  RH  010%=      5-min Rain = 0
KHO1 240028Z 30006KT 33/M03 A299 RMK A01 T03251031  RH  010%=      5-min Rain = 0
KHO1 240029Z 30006KT 33/M03 A299 RMK A01 T03251034  RH  010%=      5-min Rain = 0
KHO1 240030Z 29006KT 32/M03 A299 RMK A01 T03241034  RH  010%=      5-min Rain = 0
KHO1 240031Z 27005KT 32/M03 A299 RMK A01 T03241032  RH  010%=      5-min Rain = 0
KHO1 240032Z 28007KT 32/M03 A299 RMK A01 T03241033  RH  010%=      5-min Rain = 0
KHO1 240033Z 27007KT 32/M04 A299 RMK A01 T03231035  RH  010%=      5-min Rain = 0
KHO1 240034Z 28004KT 32/M03 A299 RMK A01 T03221032  RH  010%=      5-min Rain = 0
KHO1 240035Z 28004KT 32/M03 A299 RMK A01 T03231033  RH  010%=      5-min Rain = 0
KHO1 240036Z 28005KT 32/M03 A299 RMK A01 T03231031  RH  010%=      5-min Rain = 0
KHO1 240037Z 29005KT 32/M03 A299 RMK A01 T03241033  RH  010%=      5-min Rain = 0
KHO1 240038Z 29004KT 32/M03 A299 RMK A01 T03231033  RH  010%=      5-min Rain = 0
KHO1 240039Z 30006KT 32/M03 A299 RMK A01 T03231031  RH  010%=      5-min Rain = 0
KHO1 240040Z 32006KT 32/M03 A299 RMK A01 T03231029  RH  010%=      5-min Rain = 0
KHO1 240041Z 31005KT 32/M03 A299 RMK A01 T03221025  RH  011%=      5-min Rain = 0
KHO1 240042Z 31005KT 32/M02 A299 RMK A01 T03221024  RH  011%=      5-min Rain = 0
KHO1 240043Z 31005KT 32/M03 A299 RMK A01 T03221025  RH  011%=      5-min Rain = 0
KHO1 240044Z 32005KT 32/M03 A299 RMK A01 T03221028  RH  010%=      5-min Rain = 0
KHO1 240045Z 33006KT 32/M03 A299 RMK A01 T03211027  RH  010%=      5-min Rain = 0
KHO1 240046Z 31007KT 32/M03 A299 RMK A01 T03211027  RH  011%=      5-min Rain = 0
KHO1 240047Z 29010KT 32/M03 A299 RMK A01 T03201027  RH  011%=      5-min Rain = 0
KHO1 240048Z 30009KT 32/M03 A299 RMK A01 T03191026  RH  011%=      5-min Rain = 0
KHO1 240049Z 28006KT 32/M03 A299 RMK A01 T03191025  RH  011%=      5-min Rain = 0
KHO1 240050Z 28006KT 32/M03 A2991 RMK A01 T03201026  RH  011%=      5-min Rain = 0
KHO1 240051Z 28005KT 32/M03 A2991 RMK A01 T03201028  RH  010%=      5-min Rain = 0
KHO1 240052Z 28006KT 32/M03 A2991 RMK A01 T03201026  RH  011%=      5-min Rain = 0
KHO1 240053Z 28005KT 32/M03 A2991 RMK A01 T03211025  RH  011%=      5-min Rain = 0
KHO1 240054Z 27006KT 32/M03 A2991 RMK A01 T03211026  RH  011%=      5-min Rain = 0
KHO1 240055Z 27006KT 32/M03 A2991 RMK A01 T03211027  RH  011%=      5-min Rain = 0
KHO1 240056Z 27006KT 32/M03 A2991 RMK A01 T03211027  RH  011%=      5-min Rain = 0
KHO1 240057Z 28006KT 32/M03 A2991 RMK A01 T03201026  RH  011%=      5-min Rain = 0
KHO1 240058Z 26006KT 32/M03 A2991 RMK A01 T03201025  RH  011%=      5-min Rain = 0
KHO1 240059Z 30006KT 32/M02 A2991 RMK A01 T03201023  RH  011%=      5-min Rain = 0
KHO1 240100Z 30006KT 32/M02 A2991 RMK A01 T03191021  RH  011%=      5-min Rain = 0
KHO1 240101Z 30005KT 32/M02 A2991 RMK A01 T03181020  RH  011%=      5-min Rain = 0
KHO1 240102Z 29004KT 32/M02 A2991 RMK A01 T03181018  RH  011%=      5-min Rain = 0
KHO1 240103Z 29005KT 32/M02 A2991 RMK A01 T03181021  RH  011%=      5-min Rain = 0
KHO1 240104Z 29005KT 32/M02 A2991 RMK A01 T03181024  RH  011%=      5-min Rain = 0
KHO1 240105Z 29004KT 32/M02 A2991 RMK A01 T03181021  RH  011%=      5-min Rain = 0
KHO1 240106Z 28006KT 32/M03 A2991 RMK A01 T03181025  RH  011%=      5-min Rain = 0
KHO1 240107Z 28005KT 32/M02 A2991 RMK A01 T03181024  RH  011%=      5-min Rain = 0
KHO1 240108Z 28006KT 32/M03 A2991 RMK A01 T03181026  RH  011%=      5-min Rain = 0
KHO1 240109Z 28006KT 32/M03 A2991 RMK A01 T03171027  RH  011%=      5-min Rain = 0
KHO1 240110Z 28004KT 32/M03 A2991 RMK A01 T03171025  RH  011%=      5-min Rain = 0
KHO1 240111Z 30007KT 32/M02 A2991 RMK A01 T03171024  RH  011%=      5-min Rain = 0
KHO1 240112Z 31007KT 32/M02 A2991 RMK A01 T03171023  RH  011%=      5-min Rain = 0
KHO1 240113Z 29005KT 32/M02 A2991 RMK A01 T03161022  RH  011%=      5-min Rain = 0
KHO1 240114Z 27004KT 32/M02 A2991 RMK A01 T03151022  RH  011%=      5-min Rain = 0
KHO1 240115Z 26005KT 32/M03 A2991 RMK A01 T03151030  RH  011%=      5-min Rain = 0
KHO1 240116Z 26004KT 32/M03 A2991 RMK A01 T03151030  RH  011%=      5-min Rain = 0
KHO1 240117Z 25004KT 32/M03 A2991 RMK A01 T03151030  RH  011%=      5-min Rain = 0
KHO1 240118Z 24005KT 32/M03 A2991 RMK A01 T03151029  RH  011%=      5-min Rain = 0
KHO1 240119Z 25006KT 31/M03 A2991 RMK A01 T03141032  RH  011%=      5-min Rain = 0
KHO1 240120Z 24004KT 31/M03 A2991 RMK A01 T03141030  RH  011%=      5-min Rain = 0
KHO1 240121Z 25004KT 31/M03 A2991 RMK A01 T03131029  RH  011%=      5-min Rain = 0
KHO1 240122Z 25005KT 31/M03 A2991 RMK A01 T03131032  RH  011%=      5-min Rain = 0
KHO1 240123Z 25006KT 31/M03 A2991 RMK A01 T03121032  RH  011%=      5-min Rain = 0
KHO1 240124Z 25007KT 31/M03 A2991 RMK A01 T03121032  RH  011%=      5-min Rain = 0
KHO1 240125Z 25007KT 31/M03 A2991 RMK A01 T03111031  RH  011%=      5-min Rain = 0
KHO1 240126Z 25007KT 31/M03 A2991 RMK A01 T03101032  RH  011%=      5-min Rain = 0
KHO1 240127Z 25006KT 31/M03 A2991 RMK A01 T03101031  RH  011%=      5-min Rain = 0
KHO1 240128Z 25007KT 31/M03 A2991 RMK A01 T03091032  RH  011%=      5-min Rain = 0
KHO1 240129Z 24007KT 31/M03 A2991 RMK A01 T03091033  RH  011%=      5-min Rain = 0
KHO1 240130Z 24007KT 31/M03 A2991 RMK A01 T03091034  RH  011%=      5-min Rain = 0
KHO1 240131Z 24007KT 31/M03 A2991 RMK A01 T03091032  RH  011%=      5-min Rain = 0
KHO1 240132Z 25006KT 31/M03 A2991 RMK A01 T03081033  RH  011%=      5-min Rain = 0
KHO1 240133Z 25005KT 31/M03 A2991 RMK A01 T03071032  RH  011%=      5-min Rain = 0
KHO1 240134Z 25005KT 31/M03 A2991 RMK A01 T03061032  RH  011%=      5-min Rain = 0
KHO1 240135Z 25005KT 31/M03 A2991 RMK A01 T03061031  RH  011%=      5-min Rain = 0
KHO1 240136Z 24004KT 31/M03 A2991 RMK A01 T03051031  RH  011%=      5-min Rain = 0
KHO1 240137Z 24005KT 30/M03 A2992 RMK A01 T03041033  RH  011%=      5-min Rain = 0
KHO1 240138Z 23005KT 30/M03 A2992 RMK A01 T03041033  RH  011%=      5-min Rain = 0
KHO1 240139Z 24005KT 30/M03 A2991 RMK A01 T03031032  RH  011%=      5-min Rain = 0
KHO1 240140Z 23005KT 30/M03 A2992 RMK A01 T03031031  RH  011%=      5-min Rain = 0
KHO1 240141Z 24005KT 30/M03 A2992 RMK A01 T03021032  RH  011%=      5-min Rain = 0
KHO1 240142Z 24005KT 30/M03 A2992 RMK A01 T03011032  RH  011%=      5-min Rain = 0
KHO1 240143Z 24005KT 30/M03 A2992 RMK A01 T03001031  RH  011%=      5-min Rain = 0
KHO1 240144Z 24004KT 30/M03 A2992 RMK A01 T02991031  RH  012%=      5-min Rain = 0
KHO1 240145Z 24005KT 30/M03 A2992 RMK A01 T02981031  RH  012%=      5-min Rain = 0
KHO1 240146Z 25006KT 30/M03 A2992 RMK A01 T02971031  RH  012%=      5-min Rain = 0
KHO1 240147Z 25005KT 30/M03 A2992 RMK A01 T02961030  RH  012%=      5-min Rain = 0
KHO1 240148Z 26005KT 30/M03 A2992 RMK A01 T02951030  RH  012%=      5-min Rain = 0
KHO1 240149Z 26004KT 29/M03 A2992 RMK A01 T02941029  RH  012%=      5-min Rain = 0
KHO1 240150Z 26005KT 29/M03 A2992 RMK A01 T02931029  RH  012%=      5-min Rain = 0
KHO1 240151Z 26004KT 29/M03 A2992 RMK A01 T02931028  RH  012%=      5-min Rain = 0
KHO1 240152Z 25005KT 29/M03 A2992 RMK A01 T02921028  RH  012%=      5-min Rain = 0
KHO1 240153Z 25005KT 29/M03 A2992 RMK A01 T02921027  RH  012%=      5-min Rain = 0
KHO1 240154Z 25005KT 29/M03 A2992 RMK A01 T02911027  RH  012%=      5-min Rain = 0
KHO1 240155Z 26005KT 29/M03 A2992 RMK A01 T02901027  RH  013%=      5-min Rain = 0
KHO1 240156Z 26005KT 29/M03 A2992 RMK A01 T02891027  RH  013%=      5-min Rain = 0
KHO1 240157Z 26005KT 29/M03 A2992 RMK A01 T02881027  RH  013%=      5-min Rain = 0
KHO1 240158Z 26005KT 29/M03 A2992 RMK A01 T02881027  RH  013%=      5-min Rain = 0
KHO1 240159Z 26005KT 29/M03 A2992 RMK A01 T02881027  RH  013%=      5-min Rain = 0
KHO1 240200Z 27004KT 29/M03 A2992 RMK A01 T02871027  RH  013%=      5-min Rain = 0
KHO1 240201Z 27004KT 29/M03 A2992 RMK A01 T02871026  RH  013%=      5-min Rain = 0
KHO1 240202Z 27004KT 29/M03 A2992 RMK A01 T02871027  RH  013%=      5-min Rain = 0
KHO1 240203Z 27004KT 29/M03 A2991 RMK A01 T02871026  RH  013%=      5-min Rain = 0
KHO1 240204Z 27004KT 29/M03 A2992 RMK A01 T02881027  RH  013%=      5-min Rain = 0
KHO1 240205Z 28005KT 29/M03 A2992 RMK A01 T02881027  RH  013%=      5-min Rain = 0
KHO1 240206Z 28005KT 29/M03 A2992 RMK A01 T02881027  RH  013%=      5-min Rain = 0
KHO1 240207Z 29005KT 29/M03 A2992 RMK A01 T02881028  RH  013%=      5-min Rain = 0
KHO1 240208Z 29005KT 29/M03 A2992 RMK A01 T02871028  RH  013%=      5-min Rain = 0
KHO1 240209Z 29004KT 29/M03 A2992 RMK A01 T02871028  RH  013%=      5-min Rain = 0
KHO1 240210Z 29004KT 29/M03 A2992 RMK A01 T02871028  RH  013%=      5-min Rain = 0
KHO1 240211Z 29004KT 29/M03 A2992 RMK A01 T02861028  RH  013%=      5-min Rain = 0
KHO1 240212Z 29004KT 29/M03 A2992 RMK A01 T02861028  RH  013%=      5-min Rain = 0
KHO1 240213Z 29004KT 29/M03 A2992 RMK A01 T02861028  RH  013%=      5-min Rain = 0
KHO1 240214Z 29003KT 29/M03 A2992 RMK A01 T02851027  RH  013%=      5-min Rain = 0
KHO1 240215Z 30003KT 29/M03 A2992 RMK A01 T02851026  RH  013%=      5-min Rain = 0
KHO1 240216Z 30003KT 28/M03 A2992 RMK A01 T02841025  RH  013%=      5-min Rain = 0
KHO1 240217Z 30003KT 28/M02 A2992 RMK A01 T02831024  RH  013%=      5-min Rain = 0
KHO1 240218Z 31003KT 28/M02 A2992 RMK A01 T02831024  RH  013%=      5-min Rain = 0
KHO1 240219Z 31004KT 28/M03 A2992 RMK A01 T02821026  RH  013%=      5-min Rain = 0
KHO1 240220Z 31004KT 28/M03 A2992 RMK A01 T02821026  RH  013%=      5-min Rain = 0
KHO1 240221Z 31004KT 28/M03 A2992 RMK A01 T02821026  RH  013%=      5-min Rain = 0
KHO1 240222Z 31004KT 28/M03 A2992 RMK A01 T02821025  RH  013%=      5-min Rain = 0
KHO1 240223Z 32003KT 28/M02 A2992 RMK A01 T02821022  RH  014%=      5-min Rain = 0
KHO1 240224Z 33003KT 28/M02 A2992 RMK A01 T02801018  RH  014%=      5-min Rain = 0
KHO1 240225Z 33004KT 28/M02 A2992 RMK A01 T02791019  RH  014%=      5-min Rain = 0
KHO1 240226Z 33004KT 28/M02 A2992 RMK A01 T02781021  RH  014%=      5-min Rain = 0
KHO1 240227Z 33004KT 28/M02 A2993 RMK A01 T02771021  RH  014%=      5-min Rain = 0
KHO1 240228Z 33004KT 28/M02 A2993 RMK A01 T02771020  RH  014%=      5-min Rain = 0
KHO1 240229Z 33004KT 28/M02 A2993 RMK A01 T02751022  RH  014%=      5-min Rain = 0
KHO1 240230Z 33003KT 28/M02 A2993 RMK A01 T02751021  RH  014%=      5-min Rain = 0
KHO1 240231Z 33003KT 27/M02 A2993 RMK A01 T02731021  RH  014%=      5-min Rain = 0
KHO1 240232Z 34003KT 27/M02 A2993 RMK A01 T02721023  RH  014%=      5-min Rain = 0
KHO1 240233Z 34003KT 27/M02 A2993 RMK A01 T02731022  RH  014%=      5-min Rain = 0
KHO1 240234Z 34004KT 28/M02 A2993 RMK A01 T02751020  RH  014%=      5-min Rain = 0
KHO1 240235Z 33004KT 28/M02 A2993 RMK A01 T02751019  RH  014%=      5-min Rain = 0
KHO1 240236Z 33003KT 28/M02 A2993 RMK A01 T02751017  RH  015%=      5-min Rain = 0
KHO1 240237Z 33004KT 27/M02 A2993 RMK A01 T02741016  RH  015%=      5-min Rain = 0
KHO1 240238Z 33004KT 27/M02 A2993 RMK A01 T02731020  RH  015%=      5-min Rain = 0
KHO1 240239Z 34004KT 27/M02 A2993 RMK A01 T02741020  RH  014%=      5-min Rain = 0
KHO1 240240Z 34004KT 27/M02 A2993 RMK A01 T02741020  RH  014%=      5-min Rain = 0
KHO1 240241Z 33004KT 27/M02 A2993 RMK A01 T02741019  RH  014%=      5-min Rain = 0
KHO1 240242Z 33004KT 28/M02 A2993 RMK A01 T02751021  RH  014%=      5-min Rain = 0
KHO1 240243Z 33004KT 28/M02 A2993 RMK A01 T02751021  RH  014%=      5-min Rain = 0
KHO1 240244Z 33004KT 28/M02 A2993 RMK A01 T02751021  RH  014%=      5-min Rain = 0
KHO1 240245Z 33003KT 28/M02 A2993 RMK A01 T02751022  RH  014%=      5-min Rain = 0
KHO1 240246Z 33003KT 28/M02 A2993 RMK A01 T02751022  RH  014%=      5-min Rain = 0
KHO1 240247Z 33003KT 27/M02 A2993 RMK A01 T02741021  RH  014%=      5-min Rain = 0
KHO1 240248Z 33003KT 27/M02 A2993 RMK A01 T02731020  RH  015%=      5-min Rain = 0
KHO1 240249Z 34003KT 27/M02 A2993 RMK A01 T02731020  RH  015%=      5-min Rain = 0
KHO1 240250Z 34003KT 27/M02 A2993 RMK A01 T02721019  RH  015%=      5-min Rain = 0
KHO1 240251Z 34003KT 27/M02 A2993 RMK A01 T02721018  RH  015%=      5-min Rain = 0
KHO1 240252Z 34003KT 27/M02 A2993 RMK A01 T02711017  RH  015%=      5-min Rain = 0
KHO1 240253Z 34003KT 27/M02 A2993 RMK A01 T02711017  RH  015%=      5-min Rain = 0
KHO1 240254Z 34003KT 27/M02 A2993 RMK A01 T02711017  RH  015%=      5-min Rain = 0
KHO1 240255Z 34004KT 27/M02 A2993 RMK A01 T02701016  RH  015%=      5-min Rain = 0
KHO1 240256Z 34004KT 27/M01 A2993 RMK A01 T02691012  RH  016%=      5-min Rain = 0
KHO1 240257Z 35004KT 27/M01 A2993 RMK A01 T02681009  RH  016%=      5-min Rain = 0
KHO1 240258Z 35003KT 27/M01 A2993 RMK A01 T02651005  RH  017%=      5-min Rain = 0
KHO1 240259Z 35003KT 26/M00 A2993 RMK A01 T02631003  RH  017%=      5-min Rain = 0
KHO1 240300Z 35003KT 26/M00 A2993 RMK A01 T02611001  RH  018%=      5-min Rain = 0
KHO1 240301Z 35003KT 26/M01 A2993 RMK A01 T02601007  RH  017%=      5-min Rain = 0
KHO1 240302Z 00003KT 26/M01 A2993 RMK A01 T02611010  RH  017%=      5-min Rain = 0
KHO1 240303Z 00003KT 26/M01 A2994 RMK A01 T02631010  RH  017%=      5-min Rain = 0
KHO1 240304Z 00003KT 26/M01 A2994 RMK A01 T02641012  RH  016%=      5-min Rain = 0
KHO1 240305Z 00003KT 26/M01 A2994 RMK A01 T02641012  RH  016%=      5-min Rain = 0
KHO1 240306Z 00004KT 26/M01 A2994 RMK A01 T02631011  RH  016%=      5-min Rain = 0
KHO1 240307Z 00003KT 26/M01 A2994 RMK A01 T02621010  RH  017%=      5-min Rain = 0
KHO1 240308Z 00003KT 26/M01 A2994 RMK A01 T02601009  RH  017%=      5-min Rain = 0
KHO1 240309Z 00002KT 26/M01 A2994 RMK A01 T02591006  RH  018%=      5-min Rain = 0
KHO1 240310Z 00002KT 26/M01 A2994 RMK A01 T02561007  RH  018%=      5-min Rain = 0
KHO1 240311Z 00002KT 25/M01 A2994 RMK A01 T02541007  RH  018%=      5-min Rain = 0
KHO1 240312Z 00002KT 25/M01 A2994 RMK A01 T02521007  RH  018%=      5-min Rain = 0
KHO1 240313Z 00002KT 25/M01 A2994 RMK A01 T02521007  RH  018%=      5-min Rain = 0
KHO1 240314Z 01001KT 25/M01 A2994 RMK A01 T02511007  RH  018%=      5-min Rain = 0
KHO1 240315Z 00001KT 25/M01 A2994 RMK A01 T02511006  RH  018%=      5-min Rain = 0
KHO1 240316Z 01002KT 25/M01 A2994 RMK A01 T02511007  RH  018%=      5-min Rain = 0
KHO1 240317Z 01002KT 25/M01 A2994 RMK A01 T02511006  RH  018%=      5-min Rain = 0
KHO1 240318Z 00002KT 25/M01 A2994 RMK A01 T02501006  RH  018%=      5-min Rain = 0
KHO1 240319Z 00001KT 25/M01 A2994 RMK A01 T02501005  RH  019%=      5-min Rain = 0
KHO1 240320Z 00001KT 25/M01 A2994 RMK A01 T02501006  RH  019%=      5-min Rain = 0
KHO1 240321Z 01002KT 25/M01 A2994 RMK A01 T02501005  RH  019%=      5-min Rain = 0
KHO1 240322Z 00002KT 25/M01 A2994 RMK A01 T02511006  RH  018%=      5-min Rain = 0
KHO1 240323Z 36003KT 25/M01 A2994 RMK A01 T02521006  RH  018%=      5-min Rain = 0
KHO1 240324Z 00003KT 25/M01 A2994 RMK A01 T02531006  RH  018%=      5-min Rain = 0
KHO1 240325Z 00003KT 26/M01 A2994 RMK A01 T02551006  RH  018%=      5-min Rain = 0
KHO1 240326Z 00003KT 26/M01 A2994 RMK A01 T02561005  RH  018%=      5-min Rain = 0
KHO1 240327Z 00002KT 26/M00 A2994 RMK A01 T02561003  RH  018%=      5-min Rain = 0
KHO1 240328Z 00002KT 26/M00 A2994 RMK A01 T02571002  RH  018%=      5-min Rain = 0
KHO1 240329Z 01002KT 26/M00 A2994 RMK A01 T02561002  RH  018%=      5-min Rain = 0
KHO1 240330Z 01002KT 26/M00 A2994 RMK A01 T02561001  RH  018%=      5-min Rain = 0
KHO1 240331Z 01002KT 26/00 A2995 RMK A01 T02550001  RH  019%=      5-min Rain = 0
KHO1 240332Z 01002KT 25/00 A2995 RMK A01 T02540000  RH  019%=      5-min Rain = 0
KHO1 240333Z 01002KT 25/00 A2995 RMK A01 T02530002  RH  019%=      5-min Rain = 0
KHO1 240334Z 01002KT 25/01 A2995 RMK A01 T02520005  RH  020%=      5-min Rain = 0
KHO1 240335Z 01002KT 25/01 A2995 RMK A01 T02510007  RH  020%=      5-min Rain = 0
KHO1 240336Z 01002KT 25/01 A2995 RMK A01 T02510011  RH  021%=      5-min Rain = 0
KHO1 240337Z 00002KT 25/01 A2995 RMK A01 T02500013  RH  021%=      5-min Rain = 0
KHO1 240338Z 00002KT 25/01 A2995 RMK A01 T02480012  RH  021%=      5-min Rain = 0
KHO1 240339Z 00002KT 25/02 A2995 RMK A01 T02470016  RH  022%=      5-min Rain = 0
KHO1 240340Z 00002KT 25/02 A2995 RMK A01 T02470017  RH  022%=      5-min Rain = 0
KHO1 240341Z 00002KT 25/02 A2995 RMK A01 T02460017  RH  022%=      5-min Rain = 0
KHO1 240342Z 00002KT 25/02 A2995 RMK A01 T02450017  RH  022%=      5-min Rain = 0
KHO1 240343Z 00002KT 25/02 A2995 RMK A01 T02450017  RH  022%=      5-min Rain = 0
KHO1 240344Z 00003KT 24/02 A2995 RMK A01 T02440018  RH  023%=      5-min Rain = 0
KHO1 240345Z 00003KT 24/02 A2995 RMK A01 T02430019  RH  023%=      5-min Rain = 0
KHO1 240346Z 00003KT 24/02 A2995 RMK A01 T02430021  RH  023%=      5-min Rain = 0
KHO1 240347Z 00003KT 24/02 A2995 RMK A01 T02420024  RH  024%=      5-min Rain = 0
KHO1 240348Z 00003KT 24/03 A2995 RMK A01 T02400026  RH  025%=      5-min Rain = 0
KHO1 240349Z 00003KT 24/03 A2995 RMK A01 T02390027  RH  025%=      5-min Rain = 0
KHO1 240350Z 00003KT 24/03 A2995 RMK A01 T02380028  RH  025%=      5-min Rain = 0
KHO1 240351Z 00003KT 24/03 A2995 RMK A01 T02370029  RH  026%=      5-min Rain = 0
KHO1 240352Z 36003KT 24/03 A2995 RMK A01 T02370030  RH  026%=      5-min Rain = 0
KHO1 240353Z 35003KT 24/03 A2995 RMK A01 T02360028  RH  026%=      5-min Rain = 0
KHO1 240354Z 35003KT 24/03 A2995 RMK A01 T02360027  RH  026%=      5-min Rain = 0
KHO1 240355Z 35003KT 24/03 A2995 RMK A01 T02360028  RH  026%=      5-min Rain = 0
KHO1 240356Z 35004KT 24/03 A2995 RMK A01 T02360026  RH  025%=      5-min Rain = 0
KHO1 240357Z 34003KT 24/03 A2995 RMK A01 T02360026  RH  025%=      5-min Rain = 0
KHO1 240358Z 34003KT 24/03 A2995 RMK A01 T02360028  RH  026%=      5-min Rain = 0
KHO1 240359Z 35003KT 24/03 A2995 RMK A01 T02360029  RH  026%=      5-min Rain = 0
KHO1 240400Z 34003KT 24/03 A2995 RMK A01 T02350029  RH  026%=      5-min Rain = 0
KHO1 240401Z 34003KT 24/03 A2995 RMK A01 T02350028  RH  026%=      5-min Rain = 0
KHO1 240402Z 34002KT 23/03 A2995 RMK A01 T02340031  RH  027%=      5-min Rain = 0
KHO1 240403Z 35002KT 23/04 A2995 RMK A01 T02320037  RH  028%=      5-min Rain = 0
KHO1 240404Z 35002KT 23/04 A2995 RMK A01 T02300040  RH  029%=      5-min Rain = 0
KHO1 240405Z 35002KT 23/04 A2995 RMK A01 T02290043  RH  030%=      5-min Rain = 0
KHO1 240406Z 35002KT 23/05 A2995 RMK A01 T02280045  RH  030%=      5-min Rain = 0
KHO1 240407Z 35002KT 23/05 A2995 RMK A01 T02270047  RH  031%=      5-min Rain = 0
KHO1 240408Z 35002KT 23/05 A2995 RMK A01 T02270049  RH  031%=      5-min Rain = 0
KHO1 240409Z 35002KT 23/05 A2995 RMK A01 T02260051  RH  032%=      5-min Rain = 0
KHO1 240410Z 35001KT 23/05 A2995 RMK A01 T02260051  RH  032%=      5-min Rain = 0
KHO1 240411Z 35001KT 23/05 A2995 RMK A01 T02250051  RH  032%=      5-min Rain = 0
KHO1 240412Z 35001KT 23/05 A2995 RMK A01 T02250050  RH  032%=      5-min Rain = 0
KHO1 240413Z 35001KT 23/05 A2995 RMK A01 T02260051  RH  032%=      5-min Rain = 0
KHO1 240414Z 35000KT 23/05 A2995 RMK A01 T02260049  RH  032%=      5-min Rain = 0
KHO1 240415Z 00000KT 23/05 A2995 RMK A01 T02260047  RH  031%=      5-min Rain = 0
KHO1 240416Z 00000KT 23/04 A2995 RMK A01 T02270043  RH  030%=      5-min Rain = 0
KHO1 240417Z 35001KT 23/04 A2995 RMK A01 T02270038  RH  029%=      5-min Rain = 0
KHO1 240418Z 35001KT 23/03 A2995 RMK A01 T02270033  RH  028%=      5-min Rain = 0
KHO1 240419Z 35000KT 23/04 A2995 RMK A01 T02280042  RH  030%=      5-min Rain = 0
KHO1 240420Z 35000KT 23/05 A2995 RMK A01 T02290048  RH  031%=      5-min Rain = 0
KHO1 240421Z 00000KT 23/04 A2995 RMK A01 T02280042  RH  030%=      5-min Rain = 0
KHO1 240422Z 35000KT 23/04 A2995 RMK A01 T02270043  RH  030%=      5-min Rain = 0
KHO1 240423Z 35000KT 23/05 A2995 RMK A01 T02270045  RH  031%=      5-min Rain = 0
KHO1 240424Z 35000KT 23/05 A2995 RMK A01 T02260046  RH  031%=      5-min Rain = 0
KHO1 240425Z 35000KT 23/04 A2995 RMK A01 T02260044  RH  031%=      5-min Rain = 0
KHO1 240426Z 35000KT 23/04 A2995 RMK A01 T02260043  RH  030%=      5-min Rain = 0
KHO1 240427Z 00000KT 23/04 A2995 RMK A01 T02260044  RH  030%=      5-min Rain = 0
KHO1 240428Z 00000KT 23/04 A2995 RMK A01 T02260044  RH  030%=      5-min Rain = 0
KHO1 240429Z 00000KT 23/05 A2995 RMK A01 T02260046  RH  031%=      5-min Rain = 0
KHO1 240430Z 00000KT 23/05 A2995 RMK A01 T02250047  RH  031%=      5-min Rain = 0
KHO1 240431Z 34000KT 22/05 A2995 RMK A01 T02240048  RH  032%=      5-min Rain = 0
KHO1 240432Z 34000KT 22/05 A2995 RMK A01 T02240049  RH  032%=      5-min Rain = 0
KHO1 240433Z 00000KT 22/05 A2995 RMK A01 T02230047  RH  032%=      5-min Rain = 0
KHO1 240434Z 00000KT 22/05 A2995 RMK A01 T02220046  RH  032%=      5-min Rain = 0
KHO1 240435Z 34000KT 22/05 A2995 RMK A01 T02210046  RH  032%=      5-min Rain = 0
KHO1 240436Z 34000KT 22/05 A2995 RMK A01 T02200046  RH  032%=      5-min Rain = 0
KHO1 240437Z 34000KT 22/04 A2995 RMK A01 T02190044  RH  032%=      5-min Rain = 0
KHO1 240438Z 34000KT 22/04 A2995 RMK A01 T02180044  RH  032%=      5-min Rain = 0
KHO1 240439Z 34001KT 22/05 A2995 RMK A01 T02170045  RH  033%=      5-min Rain = 0
KHO1 240440Z 34000KT 22/04 A2995 RMK A01 T02160043  RH  032%=      5-min Rain = 0
KHO1 240441Z 34000KT 22/04 A2995 RMK A01 T02160042  RH  032%=      5-min Rain = 0
KHO1 240442Z 00000KT 22/04 A2995 RMK A01 T02160042  RH  032%=      5-min Rain = 0
KHO1 240443Z 00000KT 22/04 A2995 RMK A01 T02150042  RH  032%=      5-min Rain = 0
KHO1 240444Z 00000KT 22/04 A2995 RMK A01 T02150043  RH  033%=      5-min Rain = 0
KHO1 240445Z 00000KT 21/04 A2995 RMK A01 T02140043  RH  033%=      5-min Rain = 0
KHO1 240446Z 00000KT 21/04 A2995 RMK A01 T02130044  RH  033%=      5-min Rain = 0
KHO1 240447Z 34000KT 21/04 A2995 RMK A01 T02120041  RH  032%=      5-min Rain = 0
KHO1 240448Z 34000KT 21/05 A2995 RMK A01 T02120045  RH  033%=      5-min Rain = 0
KHO1 240449Z 34000KT 21/05 A2995 RMK A01 T02120046  RH  034%=      5-min Rain = 0
KHO1 240450Z 34001KT 21/04 A2995 RMK A01 T02120044  RH  033%=      5-min Rain = 0
KHO1 240451Z 34001KT 21/04 A2995 RMK A01 T02130042  RH  033%=      5-min Rain = 0
KHO1 240452Z 34000KT 21/04 A2995 RMK A01 T02130040  RH  032%=      5-min Rain = 0
KHO1 240453Z 34000KT 21/04 A2995 RMK A01 T02140040  RH  032%=      5-min Rain = 0
KHO1 240454Z 34000KT 21/03 A2995 RMK A01 T02140031  RH  030%=      5-min Rain = 0
KHO1 240455Z 00000KT 21/03 A2995 RMK A01 T02140027  RH  029%=      5-min Rain = 0
KHO1 240456Z 00000KT 21/02 A2995 RMK A01 T02140024  RH  029%=      5-min Rain = 0
KHO1 240457Z 00000KT 21/02 A2995 RMK A01 T02140024  RH  029%=      5-min Rain = 0
KHO1 240458Z 00000KT 22/03 A2995 RMK A01 T02150027  RH  029%=      5-min Rain = 0
KHO1 240459Z 00000KT 22/03 A2995 RMK A01 T02150029  RH  030%=      5-min Rain = 0

Page generated in 0.0808 seconds.